<?xml version="1.0" encoding="UTF-8" standalone="no" ?>
<gpx xmlns="http://www.topografix.com/GPX/1/1" xmlns:xsi="http://www.w3.org/2001/XMLSchema-instance" xsi:schemaLocation="http://www.topografix.com/GPX/1/1 http://www.topografix.com/GPX/1/1/gpx.xsd" version="1.1" creator="VisuGPX - https://www.visugpx.com">
  <metadata>
    <name>83 - M - Lorgues </name>
    <desc><![CDATA[83 - M - Lorgues : la Vignaubière - les Peliquants
2023-11-08]]></desc>
  </metadata>
  <trk>
    <name><![CDATA[Lorgues La Vigneaubière Les Pélicans2023-11-08]]></name>
    <trkseg>
      <trkpt lat="43.48124" lon="6.32784">
        <ele>131.9</ele>
        <time>2023-11-08T12:46:33Z</time>
      </trkpt>
      <trkpt lat="43.48124" lon="6.32784">
        <ele>131.9</ele>
        <time>2023-11-08T12:46:34Z</time>
      </trkpt>
      <trkpt lat="43.4812" lon="6.3279">
        <ele>148.9</ele>
        <time>2023-11-08T12:46:44Z</time>
      </trkpt>
      <trkpt lat="43.48111" lon="6.3278">
        <ele>150.2</ele>
        <time>2023-11-08T12:46:54Z</time>
      </trkpt>
      <trkpt lat="43.48106" lon="6.32768">
        <ele>149.7</ele>
        <time>2023-11-08T12:47:04Z</time>
      </trkpt>
      <trkpt lat="43.48098" lon="6.3276">
        <ele>149.9</ele>
        <time>2023-11-08T12:47:14Z</time>
      </trkpt>
      <trkpt lat="43.48088" lon="6.32751">
        <ele>149</ele>
        <time>2023-11-08T12:47:24Z</time>
      </trkpt>
      <trkpt lat="43.48077" lon="6.32745">
        <ele>147.9</ele>
        <time>2023-11-08T12:47:34Z</time>
      </trkpt>
      <trkpt lat="43.48068" lon="6.32735">
        <ele>146.2</ele>
        <time>2023-11-08T12:47:45Z</time>
      </trkpt>
      <trkpt lat="43.48054" lon="6.3273">
        <ele>144.9</ele>
        <time>2023-11-08T12:47:55Z</time>
      </trkpt>
      <trkpt lat="43.48039" lon="6.32725">
        <ele>144.2</ele>
        <time>2023-11-08T12:48:05Z</time>
      </trkpt>
      <trkpt lat="43.48027" lon="6.32724">
        <ele>143.5</ele>
        <time>2023-11-08T12:48:15Z</time>
      </trkpt>
      <trkpt lat="43.48013" lon="6.3272">
        <ele>143.9</ele>
        <time>2023-11-08T12:48:25Z</time>
      </trkpt>
      <trkpt lat="43.48" lon="6.3272">
        <ele>143.5</ele>
        <time>2023-11-08T12:48:35Z</time>
      </trkpt>
      <trkpt lat="43.47987" lon="6.3272">
        <ele>143.1</ele>
        <time>2023-11-08T12:48:45Z</time>
      </trkpt>
      <trkpt lat="43.47975" lon="6.32717">
        <ele>142.9</ele>
        <time>2023-11-08T12:48:55Z</time>
      </trkpt>
      <trkpt lat="43.47964" lon="6.3272">
        <ele>143</ele>
        <time>2023-11-08T12:49:05Z</time>
      </trkpt>
      <trkpt lat="43.4795" lon="6.32721">
        <ele>143.9</ele>
        <time>2023-11-08T12:49:15Z</time>
      </trkpt>
      <trkpt lat="43.4794" lon="6.3272">
        <ele>144.5</ele>
        <time>2023-11-08T12:49:25Z</time>
      </trkpt>
      <trkpt lat="43.47924" lon="6.32721">
        <ele>144.9</ele>
        <time>2023-11-08T12:49:35Z</time>
      </trkpt>
      <trkpt lat="43.47911" lon="6.32718">
        <ele>144.4</ele>
        <time>2023-11-08T12:49:45Z</time>
      </trkpt>
      <trkpt lat="43.47901" lon="6.32709">
        <ele>144.2</ele>
        <time>2023-11-08T12:49:55Z</time>
      </trkpt>
      <trkpt lat="43.47891" lon="6.32699">
        <ele>144.5</ele>
        <time>2023-11-08T12:50:05Z</time>
      </trkpt>
      <trkpt lat="43.4788" lon="6.32692">
        <ele>143.7</ele>
        <time>2023-11-08T12:50:15Z</time>
      </trkpt>
      <trkpt lat="43.47871" lon="6.32681">
        <ele>145.3</ele>
        <time>2023-11-08T12:50:25Z</time>
      </trkpt>
      <trkpt lat="43.4786" lon="6.32672">
        <ele>146.2</ele>
        <time>2023-11-08T12:50:35Z</time>
      </trkpt>
      <trkpt lat="43.47847" lon="6.32668">
        <ele>145.6</ele>
        <time>2023-11-08T12:50:45Z</time>
      </trkpt>
      <trkpt lat="43.47836" lon="6.32661">
        <ele>145.9</ele>
        <time>2023-11-08T12:50:55Z</time>
      </trkpt>
      <trkpt lat="43.47826" lon="6.32647">
        <ele>143.5</ele>
        <time>2023-11-08T12:51:05Z</time>
      </trkpt>
      <trkpt lat="43.4782" lon="6.32632">
        <ele>142.9</ele>
        <time>2023-11-08T12:51:15Z</time>
      </trkpt>
      <trkpt lat="43.47813" lon="6.32614">
        <ele>141</ele>
        <time>2023-11-08T12:51:25Z</time>
      </trkpt>
      <trkpt lat="43.47809" lon="6.326">
        <ele>140.3</ele>
        <time>2023-11-08T12:51:35Z</time>
      </trkpt>
      <trkpt lat="43.47802" lon="6.32585">
        <ele>138.5</ele>
        <time>2023-11-08T12:51:45Z</time>
      </trkpt>
      <trkpt lat="43.47796" lon="6.3257">
        <ele>137.8</ele>
        <time>2023-11-08T12:51:55Z</time>
      </trkpt>
      <trkpt lat="43.47794" lon="6.32548">
        <ele>136.9</ele>
        <time>2023-11-08T12:52:05Z</time>
      </trkpt>
      <trkpt lat="43.47792" lon="6.3253">
        <ele>135.6</ele>
        <time>2023-11-08T12:52:15Z</time>
      </trkpt>
      <trkpt lat="43.47791" lon="6.32514">
        <ele>134.8</ele>
        <time>2023-11-08T12:52:25Z</time>
      </trkpt>
      <trkpt lat="43.4779" lon="6.32497">
        <ele>133.3</ele>
        <time>2023-11-08T12:52:35Z</time>
      </trkpt>
      <trkpt lat="43.4779" lon="6.32478">
        <ele>131.7</ele>
        <time>2023-11-08T12:52:45Z</time>
      </trkpt>
      <trkpt lat="43.47788" lon="6.32462">
        <ele>130.3</ele>
        <time>2023-11-08T12:52:55Z</time>
      </trkpt>
      <trkpt lat="43.47785" lon="6.32444">
        <ele>130</ele>
        <time>2023-11-08T12:53:05Z</time>
      </trkpt>
      <trkpt lat="43.47779" lon="6.32425">
        <ele>129.4</ele>
        <time>2023-11-08T12:53:15Z</time>
      </trkpt>
      <trkpt lat="43.47774" lon="6.32407">
        <ele>129.6</ele>
        <time>2023-11-08T12:53:25Z</time>
      </trkpt>
      <trkpt lat="43.47769" lon="6.32391">
        <ele>129.4</ele>
        <time>2023-11-08T12:53:35Z</time>
      </trkpt>
      <trkpt lat="43.47764" lon="6.32374">
        <ele>129.3</ele>
        <time>2023-11-08T12:53:45Z</time>
      </trkpt>
      <trkpt lat="43.47756" lon="6.3236">
        <ele>129.8</ele>
        <time>2023-11-08T12:53:55Z</time>
      </trkpt>
      <trkpt lat="43.4775" lon="6.32348">
        <ele>130.2</ele>
        <time>2023-11-08T12:54:05Z</time>
      </trkpt>
      <trkpt lat="43.47743" lon="6.32335">
        <ele>131.3</ele>
        <time>2023-11-08T12:54:15Z</time>
      </trkpt>
      <trkpt lat="43.47743" lon="6.32321">
        <ele>132.1</ele>
        <time>2023-11-08T12:54:25Z</time>
      </trkpt>
      <trkpt lat="43.47739" lon="6.32308">
        <ele>133.2</ele>
        <time>2023-11-08T12:54:35Z</time>
      </trkpt>
      <trkpt lat="43.47732" lon="6.32296">
        <ele>134.8</ele>
        <time>2023-11-08T12:54:45Z</time>
      </trkpt>
      <trkpt lat="43.47727" lon="6.32278">
        <ele>135.5</ele>
        <time>2023-11-08T12:54:55Z</time>
      </trkpt>
      <trkpt lat="43.47723" lon="6.32264">
        <ele>136.5</ele>
        <time>2023-11-08T12:55:05Z</time>
      </trkpt>
      <trkpt lat="43.47721" lon="6.32249">
        <ele>137</ele>
        <time>2023-11-08T12:55:15Z</time>
      </trkpt>
      <trkpt lat="43.47717" lon="6.32235">
        <ele>137.7</ele>
        <time>2023-11-08T12:55:25Z</time>
      </trkpt>
      <trkpt lat="43.47712" lon="6.32223">
        <ele>139.1</ele>
        <time>2023-11-08T12:55:35Z</time>
      </trkpt>
      <trkpt lat="43.47706" lon="6.32214">
        <ele>140.3</ele>
        <time>2023-11-08T12:55:45Z</time>
      </trkpt>
      <trkpt lat="43.47697" lon="6.32199">
        <ele>141.1</ele>
        <time>2023-11-08T12:55:55Z</time>
      </trkpt>
      <trkpt lat="43.47687" lon="6.32187">
        <ele>141.6</ele>
        <time>2023-11-08T12:56:05Z</time>
      </trkpt>
      <trkpt lat="43.47677" lon="6.32176">
        <ele>142.8</ele>
        <time>2023-11-08T12:56:15Z</time>
      </trkpt>
      <trkpt lat="43.47669" lon="6.32162">
        <ele>144</ele>
        <time>2023-11-08T12:56:25Z</time>
      </trkpt>
      <trkpt lat="43.47662" lon="6.32151">
        <ele>144.5</ele>
        <time>2023-11-08T12:56:35Z</time>
      </trkpt>
      <trkpt lat="43.47651" lon="6.32131">
        <ele>145.3</ele>
        <time>2023-11-08T12:56:45Z</time>
      </trkpt>
      <trkpt lat="43.47645" lon="6.3213">
        <ele>145.8</ele>
        <time>2023-11-08T12:56:55Z</time>
      </trkpt>
      <trkpt lat="43.47643" lon="6.32134">
        <ele>145.9</ele>
        <time>2023-11-08T12:57:05Z</time>
      </trkpt>
      <trkpt lat="43.47641" lon="6.32134">
        <ele>145.9</ele>
        <time>2023-11-08T12:57:15Z</time>
      </trkpt>
      <trkpt lat="43.47637" lon="6.32136">
        <ele>145.6</ele>
        <time>2023-11-08T12:57:25Z</time>
      </trkpt>
      <trkpt lat="43.47634" lon="6.32141">
        <ele>145.8</ele>
        <time>2023-11-08T12:57:35Z</time>
      </trkpt>
      <trkpt lat="43.47632" lon="6.32144">
        <ele>145.7</ele>
        <time>2023-11-08T12:57:45Z</time>
      </trkpt>
      <trkpt lat="43.47632" lon="6.32145">
        <ele>145.5</ele>
        <time>2023-11-08T12:57:55Z</time>
      </trkpt>
      <trkpt lat="43.47632" lon="6.32145">
        <ele>145.6</ele>
        <time>2023-11-08T12:58:05Z</time>
      </trkpt>
      <trkpt lat="43.47632" lon="6.32147">
        <ele>145.8</ele>
        <time>2023-11-08T12:58:15Z</time>
      </trkpt>
      <trkpt lat="43.47632" lon="6.32149">
        <ele>145.8</ele>
        <time>2023-11-08T12:58:25Z</time>
      </trkpt>
      <trkpt lat="43.47632" lon="6.32148">
        <ele>145.8</ele>
        <time>2023-11-08T12:58:35Z</time>
      </trkpt>
      <trkpt lat="43.47633" lon="6.32148">
        <ele>145.7</ele>
        <time>2023-11-08T12:58:45Z</time>
      </trkpt>
      <trkpt lat="43.47633" lon="6.32145">
        <ele>145.8</ele>
        <time>2023-11-08T12:58:55Z</time>
      </trkpt>
      <trkpt lat="43.47632" lon="6.32144">
        <ele>145.8</ele>
        <time>2023-11-08T12:59:05Z</time>
      </trkpt>
      <trkpt lat="43.47633" lon="6.32144">
        <ele>145.8</ele>
        <time>2023-11-08T12:59:15Z</time>
      </trkpt>
      <trkpt lat="43.47633" lon="6.32143">
        <ele>146.1</ele>
        <time>2023-11-08T12:59:25Z</time>
      </trkpt>
      <trkpt lat="43.47631" lon="6.3213">
        <ele>146.2</ele>
        <time>2023-11-08T12:59:35Z</time>
      </trkpt>
      <trkpt lat="43.47626" lon="6.32115">
        <ele>146.7</ele>
        <time>2023-11-08T12:59:45Z</time>
      </trkpt>
      <trkpt lat="43.47618" lon="6.32102">
        <ele>147.6</ele>
        <time>2023-11-08T12:59:55Z</time>
      </trkpt>
      <trkpt lat="43.47607" lon="6.32101">
        <ele>147.8</ele>
        <time>2023-11-08T13:00:05Z</time>
      </trkpt>
      <trkpt lat="43.47599" lon="6.32103">
        <ele>150.7</ele>
        <time>2023-11-08T13:00:15Z</time>
      </trkpt>
      <trkpt lat="43.47591" lon="6.32118">
        <ele>150.6</ele>
        <time>2023-11-08T13:00:25Z</time>
      </trkpt>
      <trkpt lat="43.47586" lon="6.32136">
        <ele>152.5</ele>
        <time>2023-11-08T13:00:35Z</time>
      </trkpt>
      <trkpt lat="43.47583" lon="6.32152">
        <ele>153.2</ele>
        <time>2023-11-08T13:00:45Z</time>
      </trkpt>
      <trkpt lat="43.47578" lon="6.32168">
        <ele>152.9</ele>
        <time>2023-11-08T13:00:55Z</time>
      </trkpt>
      <trkpt lat="43.47574" lon="6.32183">
        <ele>154.7</ele>
        <time>2023-11-08T13:01:05Z</time>
      </trkpt>
      <trkpt lat="43.47568" lon="6.32197">
        <ele>154.4</ele>
        <time>2023-11-08T13:01:15Z</time>
      </trkpt>
      <trkpt lat="43.47559" lon="6.32209">
        <ele>154.5</ele>
        <time>2023-11-08T13:01:25Z</time>
      </trkpt>
      <trkpt lat="43.47551" lon="6.32221">
        <ele>156.3</ele>
        <time>2023-11-08T13:01:35Z</time>
      </trkpt>
      <trkpt lat="43.4754" lon="6.32231">
        <ele>157.6</ele>
        <time>2023-11-08T13:01:45Z</time>
      </trkpt>
      <trkpt lat="43.4753" lon="6.32243">
        <ele>159.7</ele>
        <time>2023-11-08T13:01:55Z</time>
      </trkpt>
      <trkpt lat="43.47522" lon="6.32255">
        <ele>160.7</ele>
        <time>2023-11-08T13:02:05Z</time>
      </trkpt>
      <trkpt lat="43.47519" lon="6.3226">
        <ele>161.3</ele>
        <time>2023-11-08T13:02:15Z</time>
      </trkpt>
      <trkpt lat="43.47522" lon="6.32262">
        <ele>160.8</ele>
        <time>2023-11-08T13:02:25Z</time>
      </trkpt>
      <trkpt lat="43.47525" lon="6.32268">
        <ele>161</ele>
        <time>2023-11-08T13:02:35Z</time>
      </trkpt>
      <trkpt lat="43.4753" lon="6.32284">
        <ele>160.4</ele>
        <time>2023-11-08T13:02:45Z</time>
      </trkpt>
      <trkpt lat="43.47537" lon="6.32298">
        <ele>160.8</ele>
        <time>2023-11-08T13:02:55Z</time>
      </trkpt>
      <trkpt lat="43.47537" lon="6.32312">
        <ele>161.2</ele>
        <time>2023-11-08T13:03:05Z</time>
      </trkpt>
      <trkpt lat="43.47526" lon="6.32319">
        <ele>162</ele>
        <time>2023-11-08T13:03:15Z</time>
      </trkpt>
      <trkpt lat="43.47512" lon="6.32321">
        <ele>161.8</ele>
        <time>2023-11-08T13:03:25Z</time>
      </trkpt>
      <trkpt lat="43.47501" lon="6.3232">
        <ele>162.5</ele>
        <time>2023-11-08T13:03:35Z</time>
      </trkpt>
      <trkpt lat="43.47494" lon="6.32322">
        <ele>162.1</ele>
        <time>2023-11-08T13:03:45Z</time>
      </trkpt>
      <trkpt lat="43.47488" lon="6.32329">
        <ele>162.5</ele>
        <time>2023-11-08T13:03:55Z</time>
      </trkpt>
      <trkpt lat="43.47478" lon="6.3234">
        <ele>163.7</ele>
        <time>2023-11-08T13:04:05Z</time>
      </trkpt>
      <trkpt lat="43.4747" lon="6.32352">
        <ele>163.6</ele>
        <time>2023-11-08T13:04:15Z</time>
      </trkpt>
      <trkpt lat="43.47462" lon="6.32362">
        <ele>165</ele>
        <time>2023-11-08T13:04:25Z</time>
      </trkpt>
      <trkpt lat="43.47452" lon="6.32373">
        <ele>164.4</ele>
        <time>2023-11-08T13:04:35Z</time>
      </trkpt>
      <trkpt lat="43.47442" lon="6.32381">
        <ele>164.2</ele>
        <time>2023-11-08T13:04:45Z</time>
      </trkpt>
      <trkpt lat="43.47433" lon="6.32387">
        <ele>162.9</ele>
        <time>2023-11-08T13:04:55Z</time>
      </trkpt>
      <trkpt lat="43.47425" lon="6.32394">
        <ele>162</ele>
        <time>2023-11-08T13:05:05Z</time>
      </trkpt>
      <trkpt lat="43.47414" lon="6.32403">
        <ele>161.1</ele>
        <time>2023-11-08T13:05:15Z</time>
      </trkpt>
      <trkpt lat="43.47404" lon="6.32407">
        <ele>159.4</ele>
        <time>2023-11-08T13:05:25Z</time>
      </trkpt>
      <trkpt lat="43.47391" lon="6.32408">
        <ele>157.6</ele>
        <time>2023-11-08T13:05:35Z</time>
      </trkpt>
      <trkpt lat="43.4738" lon="6.32406">
        <ele>156.2</ele>
        <time>2023-11-08T13:05:45Z</time>
      </trkpt>
      <trkpt lat="43.47371" lon="6.32407">
        <ele>154.9</ele>
        <time>2023-11-08T13:05:55Z</time>
      </trkpt>
      <trkpt lat="43.47362" lon="6.32408">
        <ele>154.7</ele>
        <time>2023-11-08T13:06:05Z</time>
      </trkpt>
      <trkpt lat="43.47353" lon="6.32409">
        <ele>153</ele>
        <time>2023-11-08T13:06:15Z</time>
      </trkpt>
      <trkpt lat="43.47342" lon="6.32408">
        <ele>152.5</ele>
        <time>2023-11-08T13:06:25Z</time>
      </trkpt>
      <trkpt lat="43.47334" lon="6.32404">
        <ele>150.3</ele>
        <time>2023-11-08T13:06:35Z</time>
      </trkpt>
      <trkpt lat="43.47323" lon="6.32396">
        <ele>148.5</ele>
        <time>2023-11-08T13:06:45Z</time>
      </trkpt>
      <trkpt lat="43.47313" lon="6.32401">
        <ele>148</ele>
        <time>2023-11-08T13:06:55Z</time>
      </trkpt>
      <trkpt lat="43.47308" lon="6.32406">
        <ele>148.2</ele>
        <time>2023-11-08T13:07:05Z</time>
      </trkpt>
      <trkpt lat="43.473" lon="6.32414">
        <ele>148.7</ele>
        <time>2023-11-08T13:07:15Z</time>
      </trkpt>
      <trkpt lat="43.4729" lon="6.32422">
        <ele>152.1</ele>
        <time>2023-11-08T13:07:25Z</time>
      </trkpt>
      <trkpt lat="43.47281" lon="6.32424">
        <ele>151.4</ele>
        <time>2023-11-08T13:07:35Z</time>
      </trkpt>
      <trkpt lat="43.47271" lon="6.32428">
        <ele>154.4</ele>
        <time>2023-11-08T13:07:45Z</time>
      </trkpt>
      <trkpt lat="43.47259" lon="6.32438">
        <ele>157</ele>
        <time>2023-11-08T13:07:55Z</time>
      </trkpt>
      <trkpt lat="43.47252" lon="6.32439">
        <ele>156.7</ele>
        <time>2023-11-08T13:08:05Z</time>
      </trkpt>
      <trkpt lat="43.47246" lon="6.32443">
        <ele>159.1</ele>
        <time>2023-11-08T13:08:15Z</time>
      </trkpt>
      <trkpt lat="43.47238" lon="6.3245">
        <ele>159.8</ele>
        <time>2023-11-08T13:08:25Z</time>
      </trkpt>
      <trkpt lat="43.47231" lon="6.32453">
        <ele>160.6</ele>
        <time>2023-11-08T13:08:35Z</time>
      </trkpt>
      <trkpt lat="43.47223" lon="6.32453">
        <ele>162.5</ele>
        <time>2023-11-08T13:08:45Z</time>
      </trkpt>
      <trkpt lat="43.47219" lon="6.32457">
        <ele>163.5</ele>
        <time>2023-11-08T13:08:55Z</time>
      </trkpt>
      <trkpt lat="43.47217" lon="6.3246">
        <ele>163.8</ele>
        <time>2023-11-08T13:09:05Z</time>
      </trkpt>
      <trkpt lat="43.47217" lon="6.32464">
        <ele>163.7</ele>
        <time>2023-11-08T13:09:15Z</time>
      </trkpt>
      <trkpt lat="43.47215" lon="6.32468">
        <ele>163.6</ele>
        <time>2023-11-08T13:09:25Z</time>
      </trkpt>
      <trkpt lat="43.47214" lon="6.32469">
        <ele>163.7</ele>
        <time>2023-11-08T13:09:35Z</time>
      </trkpt>
      <trkpt lat="43.47213" lon="6.3247">
        <ele>163.8</ele>
        <time>2023-11-08T13:09:45Z</time>
      </trkpt>
      <trkpt lat="43.47212" lon="6.32478">
        <ele>164.3</ele>
        <time>2023-11-08T13:09:55Z</time>
      </trkpt>
      <trkpt lat="43.47213" lon="6.32479">
        <ele>164</ele>
        <time>2023-11-08T13:10:05Z</time>
      </trkpt>
      <trkpt lat="43.47212" lon="6.32487">
        <ele>164.5</ele>
        <time>2023-11-08T13:10:15Z</time>
      </trkpt>
      <trkpt lat="43.47208" lon="6.32498">
        <ele>163.2</ele>
        <time>2023-11-08T13:10:25Z</time>
      </trkpt>
      <trkpt lat="43.47201" lon="6.32498">
        <ele>164.7</ele>
        <time>2023-11-08T13:10:35Z</time>
      </trkpt>
      <trkpt lat="43.47191" lon="6.325">
        <ele>165.7</ele>
        <time>2023-11-08T13:10:45Z</time>
      </trkpt>
      <trkpt lat="43.47184" lon="6.32504">
        <ele>166.3</ele>
        <time>2023-11-08T13:10:55Z</time>
      </trkpt>
      <trkpt lat="43.47183" lon="6.325">
        <ele>166</ele>
        <time>2023-11-08T13:11:05Z</time>
      </trkpt>
      <trkpt lat="43.47181" lon="6.32489">
        <ele>165.2</ele>
        <time>2023-11-08T13:11:15Z</time>
      </trkpt>
      <trkpt lat="43.47176" lon="6.32478">
        <ele>165.3</ele>
        <time>2023-11-08T13:11:25Z</time>
      </trkpt>
      <trkpt lat="43.47167" lon="6.32467">
        <ele>164.3</ele>
        <time>2023-11-08T13:11:35Z</time>
      </trkpt>
      <trkpt lat="43.47157" lon="6.32464">
        <ele>162.7</ele>
        <time>2023-11-08T13:11:45Z</time>
      </trkpt>
      <trkpt lat="43.47145" lon="6.32463">
        <ele>162.2</ele>
        <time>2023-11-08T13:11:55Z</time>
      </trkpt>
      <trkpt lat="43.47135" lon="6.32463">
        <ele>160.5</ele>
        <time>2023-11-08T13:12:05Z</time>
      </trkpt>
      <trkpt lat="43.47124" lon="6.32468">
        <ele>159.3</ele>
        <time>2023-11-08T13:12:15Z</time>
      </trkpt>
      <trkpt lat="43.47114" lon="6.32471">
        <ele>157.9</ele>
        <time>2023-11-08T13:12:25Z</time>
      </trkpt>
      <trkpt lat="43.47101" lon="6.32472">
        <ele>157.2</ele>
        <time>2023-11-08T13:12:35Z</time>
      </trkpt>
      <trkpt lat="43.47092" lon="6.32467">
        <ele>155.1</ele>
        <time>2023-11-08T13:12:45Z</time>
      </trkpt>
      <trkpt lat="43.47079" lon="6.32474">
        <ele>153.5</ele>
        <time>2023-11-08T13:12:55Z</time>
      </trkpt>
      <trkpt lat="43.47069" lon="6.32478">
        <ele>151.5</ele>
        <time>2023-11-08T13:13:05Z</time>
      </trkpt>
      <trkpt lat="43.4706" lon="6.32478">
        <ele>149.2</ele>
        <time>2023-11-08T13:13:15Z</time>
      </trkpt>
      <trkpt lat="43.4705" lon="6.32479">
        <ele>148.1</ele>
        <time>2023-11-08T13:13:25Z</time>
      </trkpt>
      <trkpt lat="43.47041" lon="6.3248">
        <ele>147.2</ele>
        <time>2023-11-08T13:13:35Z</time>
      </trkpt>
      <trkpt lat="43.47031" lon="6.3248">
        <ele>146.3</ele>
        <time>2023-11-08T13:13:45Z</time>
      </trkpt>
      <trkpt lat="43.47022" lon="6.32478">
        <ele>145.4</ele>
        <time>2023-11-08T13:13:55Z</time>
      </trkpt>
      <trkpt lat="43.47015" lon="6.32474">
        <ele>143.9</ele>
        <time>2023-11-08T13:14:05Z</time>
      </trkpt>
      <trkpt lat="43.47006" lon="6.32467">
        <ele>142.4</ele>
        <time>2023-11-08T13:14:15Z</time>
      </trkpt>
      <trkpt lat="43.46997" lon="6.32463">
        <ele>141</ele>
        <time>2023-11-08T13:14:25Z</time>
      </trkpt>
      <trkpt lat="43.46988" lon="6.32457">
        <ele>140.2</ele>
        <time>2023-11-08T13:14:35Z</time>
      </trkpt>
      <trkpt lat="43.46979" lon="6.32455">
        <ele>139.1</ele>
        <time>2023-11-08T13:14:45Z</time>
      </trkpt>
      <trkpt lat="43.46973" lon="6.3245">
        <ele>138.5</ele>
        <time>2023-11-08T13:14:55Z</time>
      </trkpt>
      <trkpt lat="43.46966" lon="6.32447">
        <ele>137.3</ele>
        <time>2023-11-08T13:15:05Z</time>
      </trkpt>
      <trkpt lat="43.46958" lon="6.32443">
        <ele>136.2</ele>
        <time>2023-11-08T13:15:15Z</time>
      </trkpt>
      <trkpt lat="43.4695" lon="6.32437">
        <ele>135.4</ele>
        <time>2023-11-08T13:15:25Z</time>
      </trkpt>
      <trkpt lat="43.46941" lon="6.32432">
        <ele>135.3</ele>
        <time>2023-11-08T13:15:35Z</time>
      </trkpt>
      <trkpt lat="43.46938" lon="6.32432">
        <ele>134.5</ele>
        <time>2023-11-08T13:15:45Z</time>
      </trkpt>
      <trkpt lat="43.46936" lon="6.32433">
        <ele>134.4</ele>
        <time>2023-11-08T13:15:55Z</time>
      </trkpt>
      <trkpt lat="43.46936" lon="6.32435">
        <ele>133.9</ele>
        <time>2023-11-08T13:16:05Z</time>
      </trkpt>
      <trkpt lat="43.46936" lon="6.32435">
        <ele>133.8</ele>
        <time>2023-11-08T13:16:15Z</time>
      </trkpt>
      <trkpt lat="43.46936" lon="6.32434">
        <ele>133.9</ele>
        <time>2023-11-08T13:16:25Z</time>
      </trkpt>
      <trkpt lat="43.46937" lon="6.32434">
        <ele>133.8</ele>
        <time>2023-11-08T13:16:35Z</time>
      </trkpt>
      <trkpt lat="43.46938" lon="6.32436">
        <ele>134.2</ele>
        <time>2023-11-08T13:16:45Z</time>
      </trkpt>
      <trkpt lat="43.46937" lon="6.32434">
        <ele>134</ele>
        <time>2023-11-08T13:16:55Z</time>
      </trkpt>
      <trkpt lat="43.46936" lon="6.32433">
        <ele>134.2</ele>
        <time>2023-11-08T13:17:05Z</time>
      </trkpt>
      <trkpt lat="43.46936" lon="6.32432">
        <ele>134.1</ele>
        <time>2023-11-08T13:17:15Z</time>
      </trkpt>
      <trkpt lat="43.46935" lon="6.32431">
        <ele>134.1</ele>
        <time>2023-11-08T13:17:25Z</time>
      </trkpt>
      <trkpt lat="43.46935" lon="6.32431">
        <ele>133.8</ele>
        <time>2023-11-08T13:17:35Z</time>
      </trkpt>
      <trkpt lat="43.46934" lon="6.32429">
        <ele>133.8</ele>
        <time>2023-11-08T13:17:45Z</time>
      </trkpt>
      <trkpt lat="43.46933" lon="6.32428">
        <ele>133.9</ele>
        <time>2023-11-08T13:17:55Z</time>
      </trkpt>
      <trkpt lat="43.46934" lon="6.32429">
        <ele>134</ele>
        <time>2023-11-08T13:18:05Z</time>
      </trkpt>
      <trkpt lat="43.46936" lon="6.32429">
        <ele>134.2</ele>
        <time>2023-11-08T13:18:15Z</time>
      </trkpt>
      <trkpt lat="43.46936" lon="6.32429">
        <ele>134.2</ele>
        <time>2023-11-08T13:18:25Z</time>
      </trkpt>
      <trkpt lat="43.46936" lon="6.32428">
        <ele>134.5</ele>
        <time>2023-11-08T13:18:35Z</time>
      </trkpt>
      <trkpt lat="43.46935" lon="6.32429">
        <ele>134.4</ele>
        <time>2023-11-08T13:18:45Z</time>
      </trkpt>
      <trkpt lat="43.46935" lon="6.3243">
        <ele>134.2</ele>
        <time>2023-11-08T13:18:55Z</time>
      </trkpt>
      <trkpt lat="43.46934" lon="6.32432">
        <ele>134.2</ele>
        <time>2023-11-08T13:19:05Z</time>
      </trkpt>
      <trkpt lat="43.46932" lon="6.32435">
        <ele>134.4</ele>
        <time>2023-11-08T13:19:15Z</time>
      </trkpt>
      <trkpt lat="43.46932" lon="6.32436">
        <ele>134.4</ele>
        <time>2023-11-08T13:19:25Z</time>
      </trkpt>
      <trkpt lat="43.46932" lon="6.32437">
        <ele>134.5</ele>
        <time>2023-11-08T13:19:35Z</time>
      </trkpt>
      <trkpt lat="43.46932" lon="6.32438">
        <ele>134.5</ele>
        <time>2023-11-08T13:19:45Z</time>
      </trkpt>
      <trkpt lat="43.46932" lon="6.32439">
        <ele>134.6</ele>
        <time>2023-11-08T13:19:55Z</time>
      </trkpt>
      <trkpt lat="43.46931" lon="6.32439">
        <ele>134.6</ele>
        <time>2023-11-08T13:20:05Z</time>
      </trkpt>
      <trkpt lat="43.4693" lon="6.32439">
        <ele>134.6</ele>
        <time>2023-11-08T13:20:15Z</time>
      </trkpt>
      <trkpt lat="43.46931" lon="6.32437">
        <ele>134.6</ele>
        <time>2023-11-08T13:20:25Z</time>
      </trkpt>
      <trkpt lat="43.46932" lon="6.32435">
        <ele>134.5</ele>
        <time>2023-11-08T13:20:35Z</time>
      </trkpt>
      <trkpt lat="43.46931" lon="6.32435">
        <ele>134.6</ele>
        <time>2023-11-08T13:20:45Z</time>
      </trkpt>
      <trkpt lat="43.46933" lon="6.32433">
        <ele>134.4</ele>
        <time>2023-11-08T13:20:55Z</time>
      </trkpt>
      <trkpt lat="43.46933" lon="6.32432">
        <ele>134.4</ele>
        <time>2023-11-08T13:21:05Z</time>
      </trkpt>
      <trkpt lat="43.46934" lon="6.32431">
        <ele>134.6</ele>
        <time>2023-11-08T13:21:15Z</time>
      </trkpt>
      <trkpt lat="43.46934" lon="6.32431">
        <ele>134.5</ele>
        <time>2023-11-08T13:21:25Z</time>
      </trkpt>
      <trkpt lat="43.46934" lon="6.3243">
        <ele>134.8</ele>
        <time>2023-11-08T13:21:35Z</time>
      </trkpt>
      <trkpt lat="43.46935" lon="6.32432">
        <ele>134.7</ele>
        <time>2023-11-08T13:21:45Z</time>
      </trkpt>
      <trkpt lat="43.46933" lon="6.32433">
        <ele>134.5</ele>
        <time>2023-11-08T13:21:55Z</time>
      </trkpt>
      <trkpt lat="43.46932" lon="6.32434">
        <ele>134.5</ele>
        <time>2023-11-08T13:22:05Z</time>
      </trkpt>
      <trkpt lat="43.46931" lon="6.32435">
        <ele>134.3</ele>
        <time>2023-11-08T13:22:15Z</time>
      </trkpt>
      <trkpt lat="43.46931" lon="6.32435">
        <ele>134.5</ele>
        <time>2023-11-08T13:22:25Z</time>
      </trkpt>
      <trkpt lat="43.46931" lon="6.32434">
        <ele>134.7</ele>
        <time>2023-11-08T13:22:35Z</time>
      </trkpt>
      <trkpt lat="43.46931" lon="6.32434">
        <ele>134.4</ele>
        <time>2023-11-08T13:22:45Z</time>
      </trkpt>
      <trkpt lat="43.46929" lon="6.32433">
        <ele>134.4</ele>
        <time>2023-11-08T13:22:55Z</time>
      </trkpt>
      <trkpt lat="43.4693" lon="6.32433">
        <ele>133.8</ele>
        <time>2023-11-08T13:23:05Z</time>
      </trkpt>
      <trkpt lat="43.46931" lon="6.32433">
        <ele>133.8</ele>
        <time>2023-11-08T13:23:15Z</time>
      </trkpt>
      <trkpt lat="43.46931" lon="6.32432">
        <ele>134.1</ele>
        <time>2023-11-08T13:23:25Z</time>
      </trkpt>
      <trkpt lat="43.46932" lon="6.32433">
        <ele>134.4</ele>
        <time>2023-11-08T13:23:35Z</time>
      </trkpt>
      <trkpt lat="43.46932" lon="6.32433">
        <ele>134.4</ele>
        <time>2023-11-08T13:23:45Z</time>
      </trkpt>
      <trkpt lat="43.46931" lon="6.3243">
        <ele>134.4</ele>
        <time>2023-11-08T13:23:55Z</time>
      </trkpt>
      <trkpt lat="43.4693" lon="6.32429">
        <ele>134.8</ele>
        <time>2023-11-08T13:24:05Z</time>
      </trkpt>
      <trkpt lat="43.46929" lon="6.32428">
        <ele>134.8</ele>
        <time>2023-11-08T13:24:15Z</time>
      </trkpt>
      <trkpt lat="43.46928" lon="6.3243">
        <ele>134.8</ele>
        <time>2023-11-08T13:24:25Z</time>
      </trkpt>
      <trkpt lat="43.46923" lon="6.32427">
        <ele>135.3</ele>
        <time>2023-11-08T13:24:35Z</time>
      </trkpt>
      <trkpt lat="43.46919" lon="6.32419">
        <ele>134.6</ele>
        <time>2023-11-08T13:24:45Z</time>
      </trkpt>
      <trkpt lat="43.46913" lon="6.32413">
        <ele>135.3</ele>
        <time>2023-11-08T13:24:55Z</time>
      </trkpt>
      <trkpt lat="43.4691" lon="6.32404">
        <ele>135.4</ele>
        <time>2023-11-08T13:25:05Z</time>
      </trkpt>
      <trkpt lat="43.4691" lon="6.324">
        <ele>135.6</ele>
        <time>2023-11-08T13:25:15Z</time>
      </trkpt>
      <trkpt lat="43.46909" lon="6.32399">
        <ele>135.3</ele>
        <time>2023-11-08T13:25:25Z</time>
      </trkpt>
      <trkpt lat="43.46909" lon="6.32393">
        <ele>135.3</ele>
        <time>2023-11-08T13:25:35Z</time>
      </trkpt>
      <trkpt lat="43.46911" lon="6.32392">
        <ele>134.8</ele>
        <time>2023-11-08T13:25:45Z</time>
      </trkpt>
      <trkpt lat="43.46911" lon="6.3239">
        <ele>136.1</ele>
        <time>2023-11-08T13:25:55Z</time>
      </trkpt>
      <trkpt lat="43.46909" lon="6.32392">
        <ele>134.9</ele>
        <time>2023-11-08T13:26:05Z</time>
      </trkpt>
      <trkpt lat="43.4691" lon="6.32391">
        <ele>136.1</ele>
        <time>2023-11-08T13:26:15Z</time>
      </trkpt>
      <trkpt lat="43.4691" lon="6.32392">
        <ele>135.8</ele>
        <time>2023-11-08T13:26:25Z</time>
      </trkpt>
      <trkpt lat="43.4691" lon="6.32392">
        <ele>136</ele>
        <time>2023-11-08T13:26:35Z</time>
      </trkpt>
      <trkpt lat="43.4691" lon="6.32392">
        <ele>136.4</ele>
        <time>2023-11-08T13:26:45Z</time>
      </trkpt>
      <trkpt lat="43.46909" lon="6.32394">
        <ele>136.5</ele>
        <time>2023-11-08T13:26:55Z</time>
      </trkpt>
      <trkpt lat="43.46909" lon="6.32396">
        <ele>136.3</ele>
        <time>2023-11-08T13:27:05Z</time>
      </trkpt>
      <trkpt lat="43.4691" lon="6.32394">
        <ele>136.2</ele>
        <time>2023-11-08T13:27:15Z</time>
      </trkpt>
      <trkpt lat="43.46909" lon="6.32395">
        <ele>136.6</ele>
        <time>2023-11-08T13:27:25Z</time>
      </trkpt>
      <trkpt lat="43.4691" lon="6.32395">
        <ele>136.7</ele>
        <time>2023-11-08T13:27:35Z</time>
      </trkpt>
      <trkpt lat="43.46909" lon="6.32394">
        <ele>136.7</ele>
        <time>2023-11-08T13:27:45Z</time>
      </trkpt>
      <trkpt lat="43.46908" lon="6.32392">
        <ele>136.8</ele>
        <time>2023-11-08T13:27:55Z</time>
      </trkpt>
      <trkpt lat="43.46908" lon="6.3239">
        <ele>136.9</ele>
        <time>2023-11-08T13:28:05Z</time>
      </trkpt>
      <trkpt lat="43.46909" lon="6.32389">
        <ele>137.9</ele>
        <time>2023-11-08T13:28:15Z</time>
      </trkpt>
      <trkpt lat="43.4691" lon="6.32387">
        <ele>138</ele>
        <time>2023-11-08T13:28:25Z</time>
      </trkpt>
      <trkpt lat="43.46911" lon="6.32392">
        <ele>138</ele>
        <time>2023-11-08T13:28:35Z</time>
      </trkpt>
      <trkpt lat="43.46913" lon="6.32397">
        <ele>137.9</ele>
        <time>2023-11-08T13:28:45Z</time>
      </trkpt>
      <trkpt lat="43.46918" lon="6.32402">
        <ele>138</ele>
        <time>2023-11-08T13:28:55Z</time>
      </trkpt>
      <trkpt lat="43.46924" lon="6.32412">
        <ele>137.1</ele>
        <time>2023-11-08T13:29:05Z</time>
      </trkpt>
      <trkpt lat="43.46928" lon="6.32423">
        <ele>136.7</ele>
        <time>2023-11-08T13:29:15Z</time>
      </trkpt>
      <trkpt lat="43.46929" lon="6.32433">
        <ele>136.2</ele>
        <time>2023-11-08T13:29:25Z</time>
      </trkpt>
      <trkpt lat="43.4693" lon="6.32433">
        <ele>135.9</ele>
        <time>2023-11-08T13:29:35Z</time>
      </trkpt>
      <trkpt lat="43.4693" lon="6.32434">
        <ele>135.9</ele>
        <time>2023-11-08T13:29:45Z</time>
      </trkpt>
      <trkpt lat="43.46932" lon="6.32437">
        <ele>135.7</ele>
        <time>2023-11-08T13:29:55Z</time>
      </trkpt>
      <trkpt lat="43.46931" lon="6.32438">
        <ele>135.8</ele>
        <time>2023-11-08T13:30:05Z</time>
      </trkpt>
      <trkpt lat="43.46922" lon="6.32443">
        <ele>135.5</ele>
        <time>2023-11-08T13:30:15Z</time>
      </trkpt>
      <trkpt lat="43.46914" lon="6.32447">
        <ele>135.1</ele>
        <time>2023-11-08T13:30:25Z</time>
      </trkpt>
      <trkpt lat="43.46905" lon="6.32455">
        <ele>134.2</ele>
        <time>2023-11-08T13:30:35Z</time>
      </trkpt>
      <trkpt lat="43.46895" lon="6.32465">
        <ele>134.5</ele>
        <time>2023-11-08T13:30:45Z</time>
      </trkpt>
      <trkpt lat="43.46886" lon="6.32467">
        <ele>134.4</ele>
        <time>2023-11-08T13:30:55Z</time>
      </trkpt>
      <trkpt lat="43.46882" lon="6.32462">
        <ele>134.2</ele>
        <time>2023-11-08T13:31:05Z</time>
      </trkpt>
      <trkpt lat="43.46882" lon="6.32459">
        <ele>134.5</ele>
        <time>2023-11-08T13:31:15Z</time>
      </trkpt>
      <trkpt lat="43.4688" lon="6.32453">
        <ele>134.3</ele>
        <time>2023-11-08T13:31:25Z</time>
      </trkpt>
      <trkpt lat="43.4688" lon="6.32452">
        <ele>133.9</ele>
        <time>2023-11-08T13:31:35Z</time>
      </trkpt>
      <trkpt lat="43.4688" lon="6.32451">
        <ele>134.5</ele>
        <time>2023-11-08T13:31:45Z</time>
      </trkpt>
      <trkpt lat="43.46879" lon="6.3245">
        <ele>133.4</ele>
        <time>2023-11-08T13:31:55Z</time>
      </trkpt>
      <trkpt lat="43.46879" lon="6.3245">
        <ele>134.1</ele>
        <time>2023-11-08T13:32:05Z</time>
      </trkpt>
      <trkpt lat="43.46879" lon="6.3245">
        <ele>133.8</ele>
        <time>2023-11-08T13:32:15Z</time>
      </trkpt>
      <trkpt lat="43.46878" lon="6.32449">
        <ele>134.2</ele>
        <time>2023-11-08T13:32:25Z</time>
      </trkpt>
      <trkpt lat="43.46878" lon="6.32449">
        <ele>133.9</ele>
        <time>2023-11-08T13:32:35Z</time>
      </trkpt>
      <trkpt lat="43.46879" lon="6.32448">
        <ele>134.2</ele>
        <time>2023-11-08T13:32:45Z</time>
      </trkpt>
      <trkpt lat="43.46881" lon="6.32447">
        <ele>134</ele>
        <time>2023-11-08T13:32:55Z</time>
      </trkpt>
      <trkpt lat="43.4688" lon="6.32442">
        <ele>134</ele>
        <time>2023-11-08T13:33:05Z</time>
      </trkpt>
      <trkpt lat="43.46877" lon="6.32441">
        <ele>134</ele>
        <time>2023-11-08T13:33:15Z</time>
      </trkpt>
      <trkpt lat="43.46876" lon="6.32441">
        <ele>134.1</ele>
        <time>2023-11-08T13:33:25Z</time>
      </trkpt>
      <trkpt lat="43.4687" lon="6.32443">
        <ele>133.6</ele>
        <time>2023-11-08T13:33:35Z</time>
      </trkpt>
      <trkpt lat="43.46868" lon="6.32448">
        <ele>133.8</ele>
        <time>2023-11-08T13:33:45Z</time>
      </trkpt>
      <trkpt lat="43.4687" lon="6.32448">
        <ele>134.2</ele>
        <time>2023-11-08T13:33:55Z</time>
      </trkpt>
      <trkpt lat="43.4687" lon="6.32448">
        <ele>133.4</ele>
        <time>2023-11-08T13:34:05Z</time>
      </trkpt>
      <trkpt lat="43.46872" lon="6.32446">
        <ele>134</ele>
        <time>2023-11-08T13:34:15Z</time>
      </trkpt>
      <trkpt lat="43.46872" lon="6.32448">
        <ele>133.8</ele>
        <time>2023-11-08T13:34:25Z</time>
      </trkpt>
      <trkpt lat="43.46871" lon="6.32448">
        <ele>133.6</ele>
        <time>2023-11-08T13:34:35Z</time>
      </trkpt>
      <trkpt lat="43.46871" lon="6.32447">
        <ele>134.2</ele>
        <time>2023-11-08T13:34:45Z</time>
      </trkpt>
      <trkpt lat="43.46871" lon="6.32447">
        <ele>133.7</ele>
        <time>2023-11-08T13:34:55Z</time>
      </trkpt>
      <trkpt lat="43.4687" lon="6.32447">
        <ele>134</ele>
        <time>2023-11-08T13:35:05Z</time>
      </trkpt>
      <trkpt lat="43.4687" lon="6.32448">
        <ele>134.1</ele>
        <time>2023-11-08T13:35:15Z</time>
      </trkpt>
      <trkpt lat="43.4687" lon="6.32447">
        <ele>134.7</ele>
        <time>2023-11-08T13:35:25Z</time>
      </trkpt>
      <trkpt lat="43.46871" lon="6.32445">
        <ele>134.4</ele>
        <time>2023-11-08T13:35:35Z</time>
      </trkpt>
      <trkpt lat="43.46871" lon="6.32446">
        <ele>134.3</ele>
        <time>2023-11-08T13:35:45Z</time>
      </trkpt>
      <trkpt lat="43.46871" lon="6.32447">
        <ele>134</ele>
        <time>2023-11-08T13:35:55Z</time>
      </trkpt>
      <trkpt lat="43.46872" lon="6.32451">
        <ele>134.2</ele>
        <time>2023-11-08T13:36:05Z</time>
      </trkpt>
      <trkpt lat="43.46873" lon="6.32455">
        <ele>133.9</ele>
        <time>2023-11-08T13:36:15Z</time>
      </trkpt>
      <trkpt lat="43.46876" lon="6.32467">
        <ele>134.4</ele>
        <time>2023-11-08T13:36:25Z</time>
      </trkpt>
      <trkpt lat="43.46876" lon="6.32479">
        <ele>134.5</ele>
        <time>2023-11-08T13:36:35Z</time>
      </trkpt>
      <trkpt lat="43.46868" lon="6.32486">
        <ele>134.5</ele>
        <time>2023-11-08T13:36:45Z</time>
      </trkpt>
      <trkpt lat="43.4686" lon="6.32491">
        <ele>133.5</ele>
        <time>2023-11-08T13:36:55Z</time>
      </trkpt>
      <trkpt lat="43.46852" lon="6.32495">
        <ele>132.1</ele>
        <time>2023-11-08T13:37:05Z</time>
      </trkpt>
      <trkpt lat="43.46844" lon="6.32502">
        <ele>131.5</ele>
        <time>2023-11-08T13:37:15Z</time>
      </trkpt>
      <trkpt lat="43.46836" lon="6.32511">
        <ele>130.2</ele>
        <time>2023-11-08T13:37:25Z</time>
      </trkpt>
      <trkpt lat="43.46831" lon="6.32524">
        <ele>129</ele>
        <time>2023-11-08T13:37:35Z</time>
      </trkpt>
      <trkpt lat="43.46828" lon="6.32535">
        <ele>128.3</ele>
        <time>2023-11-08T13:37:45Z</time>
      </trkpt>
      <trkpt lat="43.46823" lon="6.32545">
        <ele>127.1</ele>
        <time>2023-11-08T13:37:55Z</time>
      </trkpt>
      <trkpt lat="43.46818" lon="6.32557">
        <ele>126.7</ele>
        <time>2023-11-08T13:38:05Z</time>
      </trkpt>
      <trkpt lat="43.46814" lon="6.32569">
        <ele>125.8</ele>
        <time>2023-11-08T13:38:15Z</time>
      </trkpt>
      <trkpt lat="43.46811" lon="6.32584">
        <ele>125.3</ele>
        <time>2023-11-08T13:38:25Z</time>
      </trkpt>
      <trkpt lat="43.46805" lon="6.32589">
        <ele>124.2</ele>
        <time>2023-11-08T13:38:35Z</time>
      </trkpt>
      <trkpt lat="43.46799" lon="6.32583">
        <ele>124</ele>
        <time>2023-11-08T13:38:45Z</time>
      </trkpt>
      <trkpt lat="43.46792" lon="6.32576">
        <ele>122.9</ele>
        <time>2023-11-08T13:38:55Z</time>
      </trkpt>
      <trkpt lat="43.46784" lon="6.32567">
        <ele>122.8</ele>
        <time>2023-11-08T13:39:05Z</time>
      </trkpt>
      <trkpt lat="43.46776" lon="6.32558">
        <ele>123.2</ele>
        <time>2023-11-08T13:39:15Z</time>
      </trkpt>
      <trkpt lat="43.46769" lon="6.32547">
        <ele>123.3</ele>
        <time>2023-11-08T13:39:25Z</time>
      </trkpt>
      <trkpt lat="43.46764" lon="6.32535">
        <ele>123.6</ele>
        <time>2023-11-08T13:39:35Z</time>
      </trkpt>
      <trkpt lat="43.46756" lon="6.32523">
        <ele>123.3</ele>
        <time>2023-11-08T13:39:45Z</time>
      </trkpt>
      <trkpt lat="43.46752" lon="6.32507">
        <ele>122.5</ele>
        <time>2023-11-08T13:39:55Z</time>
      </trkpt>
      <trkpt lat="43.46746" lon="6.32494">
        <ele>121.3</ele>
        <time>2023-11-08T13:40:05Z</time>
      </trkpt>
      <trkpt lat="43.46741" lon="6.32482">
        <ele>120.6</ele>
        <time>2023-11-08T13:40:15Z</time>
      </trkpt>
      <trkpt lat="43.46734" lon="6.32478">
        <ele>119.6</ele>
        <time>2023-11-08T13:40:25Z</time>
      </trkpt>
      <trkpt lat="43.46729" lon="6.32484">
        <ele>118.2</ele>
        <time>2023-11-08T13:40:35Z</time>
      </trkpt>
      <trkpt lat="43.46727" lon="6.32484">
        <ele>118.2</ele>
        <time>2023-11-08T13:40:45Z</time>
      </trkpt>
      <trkpt lat="43.46727" lon="6.32483">
        <ele>118.4</ele>
        <time>2023-11-08T13:40:55Z</time>
      </trkpt>
      <trkpt lat="43.46728" lon="6.32484">
        <ele>118.2</ele>
        <time>2023-11-08T13:41:05Z</time>
      </trkpt>
      <trkpt lat="43.46727" lon="6.32484">
        <ele>118.4</ele>
        <time>2023-11-08T13:41:15Z</time>
      </trkpt>
      <trkpt lat="43.46727" lon="6.32483">
        <ele>118.6</ele>
        <time>2023-11-08T13:41:25Z</time>
      </trkpt>
      <trkpt lat="43.46727" lon="6.32483">
        <ele>118.6</ele>
        <time>2023-11-08T13:41:35Z</time>
      </trkpt>
      <trkpt lat="43.46728" lon="6.32483">
        <ele>118.4</ele>
        <time>2023-11-08T13:41:45Z</time>
      </trkpt>
      <trkpt lat="43.46728" lon="6.32483">
        <ele>118.5</ele>
        <time>2023-11-08T13:41:55Z</time>
      </trkpt>
      <trkpt lat="43.46729" lon="6.32483">
        <ele>118.4</ele>
        <time>2023-11-08T13:42:05Z</time>
      </trkpt>
      <trkpt lat="43.46729" lon="6.32483">
        <ele>118.1</ele>
        <time>2023-11-08T13:42:15Z</time>
      </trkpt>
      <trkpt lat="43.46729" lon="6.32482">
        <ele>118.2</ele>
        <time>2023-11-08T13:42:25Z</time>
      </trkpt>
      <trkpt lat="43.4673" lon="6.32482">
        <ele>118.6</ele>
        <time>2023-11-08T13:42:35Z</time>
      </trkpt>
      <trkpt lat="43.46729" lon="6.32482">
        <ele>118.1</ele>
        <time>2023-11-08T13:42:45Z</time>
      </trkpt>
      <trkpt lat="43.46728" lon="6.32482">
        <ele>118.5</ele>
        <time>2023-11-08T13:42:55Z</time>
      </trkpt>
      <trkpt lat="43.46727" lon="6.32484">
        <ele>118.1</ele>
        <time>2023-11-08T13:43:05Z</time>
      </trkpt>
      <trkpt lat="43.46726" lon="6.32485">
        <ele>118.3</ele>
        <time>2023-11-08T13:43:15Z</time>
      </trkpt>
      <trkpt lat="43.46726" lon="6.32486">
        <ele>118.3</ele>
        <time>2023-11-08T13:43:25Z</time>
      </trkpt>
      <trkpt lat="43.46726" lon="6.32487">
        <ele>118.5</ele>
        <time>2023-11-08T13:43:35Z</time>
      </trkpt>
      <trkpt lat="43.46725" lon="6.32487">
        <ele>118.2</ele>
        <time>2023-11-08T13:43:45Z</time>
      </trkpt>
      <trkpt lat="43.46725" lon="6.32487">
        <ele>118.3</ele>
        <time>2023-11-08T13:43:55Z</time>
      </trkpt>
      <trkpt lat="43.46725" lon="6.32487">
        <ele>118.3</ele>
        <time>2023-11-08T13:44:05Z</time>
      </trkpt>
      <trkpt lat="43.46722" lon="6.32486">
        <ele>117.8</ele>
        <time>2023-11-08T13:44:15Z</time>
      </trkpt>
      <trkpt lat="43.4672" lon="6.32485">
        <ele>117.2</ele>
        <time>2023-11-08T13:44:25Z</time>
      </trkpt>
      <trkpt lat="43.46717" lon="6.32484">
        <ele>117.7</ele>
        <time>2023-11-08T13:44:35Z</time>
      </trkpt>
      <trkpt lat="43.46709" lon="6.32486">
        <ele>117.1</ele>
        <time>2023-11-08T13:44:45Z</time>
      </trkpt>
      <trkpt lat="43.46699" lon="6.32485">
        <ele>116.5</ele>
        <time>2023-11-08T13:44:55Z</time>
      </trkpt>
      <trkpt lat="43.46691" lon="6.32486">
        <ele>115.7</ele>
        <time>2023-11-08T13:45:05Z</time>
      </trkpt>
      <trkpt lat="43.46681" lon="6.32488">
        <ele>115.7</ele>
        <time>2023-11-08T13:45:15Z</time>
      </trkpt>
      <trkpt lat="43.46672" lon="6.32489">
        <ele>115.8</ele>
        <time>2023-11-08T13:45:25Z</time>
      </trkpt>
      <trkpt lat="43.46663" lon="6.32491">
        <ele>115.3</ele>
        <time>2023-11-08T13:45:35Z</time>
      </trkpt>
      <trkpt lat="43.46652" lon="6.32494">
        <ele>115.2</ele>
        <time>2023-11-08T13:45:45Z</time>
      </trkpt>
      <trkpt lat="43.46641" lon="6.32496">
        <ele>115.5</ele>
        <time>2023-11-08T13:45:55Z</time>
      </trkpt>
      <trkpt lat="43.46629" lon="6.32498">
        <ele>116.3</ele>
        <time>2023-11-08T13:46:05Z</time>
      </trkpt>
      <trkpt lat="43.46618" lon="6.32501">
        <ele>116.2</ele>
        <time>2023-11-08T13:46:15Z</time>
      </trkpt>
      <trkpt lat="43.46606" lon="6.32503">
        <ele>116.4</ele>
        <time>2023-11-08T13:46:25Z</time>
      </trkpt>
      <trkpt lat="43.46595" lon="6.32509">
        <ele>116.3</ele>
        <time>2023-11-08T13:46:35Z</time>
      </trkpt>
      <trkpt lat="43.46588" lon="6.32519">
        <ele>116.2</ele>
        <time>2023-11-08T13:46:45Z</time>
      </trkpt>
      <trkpt lat="43.46581" lon="6.32528">
        <ele>114.5</ele>
        <time>2023-11-08T13:46:55Z</time>
      </trkpt>
      <trkpt lat="43.46573" lon="6.32534">
        <ele>113.5</ele>
        <time>2023-11-08T13:47:05Z</time>
      </trkpt>
      <trkpt lat="43.46565" lon="6.32537">
        <ele>112.3</ele>
        <time>2023-11-08T13:47:15Z</time>
      </trkpt>
      <trkpt lat="43.46555" lon="6.32542">
        <ele>111.2</ele>
        <time>2023-11-08T13:47:25Z</time>
      </trkpt>
      <trkpt lat="43.46545" lon="6.32545">
        <ele>110.5</ele>
        <time>2023-11-08T13:47:35Z</time>
      </trkpt>
      <trkpt lat="43.46533" lon="6.32544">
        <ele>110.5</ele>
        <time>2023-11-08T13:47:45Z</time>
      </trkpt>
      <trkpt lat="43.46523" lon="6.32542">
        <ele>109.8</ele>
        <time>2023-11-08T13:47:55Z</time>
      </trkpt>
      <trkpt lat="43.46513" lon="6.32539">
        <ele>108.9</ele>
        <time>2023-11-08T13:48:05Z</time>
      </trkpt>
      <trkpt lat="43.46502" lon="6.32536">
        <ele>106.7</ele>
        <time>2023-11-08T13:48:15Z</time>
      </trkpt>
      <trkpt lat="43.46492" lon="6.3253">
        <ele>105.3</ele>
        <time>2023-11-08T13:48:25Z</time>
      </trkpt>
      <trkpt lat="43.46482" lon="6.32523">
        <ele>104.2</ele>
        <time>2023-11-08T13:48:35Z</time>
      </trkpt>
      <trkpt lat="43.46484" lon="6.32514">
        <ele>104.1</ele>
        <time>2023-11-08T13:48:45Z</time>
      </trkpt>
      <trkpt lat="43.46483" lon="6.32509">
        <ele>103.9</ele>
        <time>2023-11-08T13:48:55Z</time>
      </trkpt>
      <trkpt lat="43.46482" lon="6.32507">
        <ele>103.6</ele>
        <time>2023-11-08T13:49:05Z</time>
      </trkpt>
      <trkpt lat="43.46482" lon="6.32503">
        <ele>103.3</ele>
        <time>2023-11-08T13:49:15Z</time>
      </trkpt>
      <trkpt lat="43.46483" lon="6.32503">
        <ele>103.4</ele>
        <time>2023-11-08T13:49:25Z</time>
      </trkpt>
      <trkpt lat="43.46483" lon="6.32504">
        <ele>103.8</ele>
        <time>2023-11-08T13:49:35Z</time>
      </trkpt>
      <trkpt lat="43.46489" lon="6.325">
        <ele>103.4</ele>
        <time>2023-11-08T13:49:45Z</time>
      </trkpt>
      <trkpt lat="43.46493" lon="6.32486">
        <ele>102.2</ele>
        <time>2023-11-08T13:49:55Z</time>
      </trkpt>
      <trkpt lat="43.46495" lon="6.32481">
        <ele>102.6</ele>
        <time>2023-11-08T13:50:05Z</time>
      </trkpt>
      <trkpt lat="43.46495" lon="6.32482">
        <ele>102.4</ele>
        <time>2023-11-08T13:50:15Z</time>
      </trkpt>
      <trkpt lat="43.46495" lon="6.32481">
        <ele>102.2</ele>
        <time>2023-11-08T13:50:25Z</time>
      </trkpt>
      <trkpt lat="43.46497" lon="6.32481">
        <ele>103</ele>
        <time>2023-11-08T13:50:35Z</time>
      </trkpt>
      <trkpt lat="43.465" lon="6.32465">
        <ele>102.3</ele>
        <time>2023-11-08T13:50:45Z</time>
      </trkpt>
      <trkpt lat="43.46501" lon="6.32458">
        <ele>101.9</ele>
        <time>2023-11-08T13:50:55Z</time>
      </trkpt>
      <trkpt lat="43.46503" lon="6.3244">
        <ele>102</ele>
        <time>2023-11-08T13:51:05Z</time>
      </trkpt>
      <trkpt lat="43.46503" lon="6.32422">
        <ele>102</ele>
        <time>2023-11-08T13:51:15Z</time>
      </trkpt>
      <trkpt lat="43.46503" lon="6.32406">
        <ele>102.4</ele>
        <time>2023-11-08T13:51:25Z</time>
      </trkpt>
      <trkpt lat="43.46505" lon="6.3239">
        <ele>102.7</ele>
        <time>2023-11-08T13:51:35Z</time>
      </trkpt>
      <trkpt lat="43.46509" lon="6.32376">
        <ele>103.5</ele>
        <time>2023-11-08T13:51:45Z</time>
      </trkpt>
      <trkpt lat="43.46514" lon="6.32366">
        <ele>103.9</ele>
        <time>2023-11-08T13:51:55Z</time>
      </trkpt>
      <trkpt lat="43.46518" lon="6.32354">
        <ele>103</ele>
        <time>2023-11-08T13:52:05Z</time>
      </trkpt>
      <trkpt lat="43.46521" lon="6.32349">
        <ele>103.2</ele>
        <time>2023-11-08T13:52:15Z</time>
      </trkpt>
      <trkpt lat="43.46522" lon="6.32348">
        <ele>103.4</ele>
        <time>2023-11-08T13:52:25Z</time>
      </trkpt>
      <trkpt lat="43.46526" lon="6.32335">
        <ele>103.6</ele>
        <time>2023-11-08T13:52:35Z</time>
      </trkpt>
      <trkpt lat="43.46526" lon="6.32316">
        <ele>103.6</ele>
        <time>2023-11-08T13:52:45Z</time>
      </trkpt>
      <trkpt lat="43.4653" lon="6.32298">
        <ele>103</ele>
        <time>2023-11-08T13:52:55Z</time>
      </trkpt>
      <trkpt lat="43.46533" lon="6.32284">
        <ele>102.8</ele>
        <time>2023-11-08T13:53:05Z</time>
      </trkpt>
      <trkpt lat="43.46535" lon="6.32265">
        <ele>102.6</ele>
        <time>2023-11-08T13:53:15Z</time>
      </trkpt>
      <trkpt lat="43.46535" lon="6.32247">
        <ele>102.3</ele>
        <time>2023-11-08T13:53:25Z</time>
      </trkpt>
      <trkpt lat="43.46532" lon="6.32228">
        <ele>103.3</ele>
        <time>2023-11-08T13:53:35Z</time>
      </trkpt>
      <trkpt lat="43.46535" lon="6.32211">
        <ele>102.7</ele>
        <time>2023-11-08T13:53:45Z</time>
      </trkpt>
      <trkpt lat="43.46537" lon="6.32203">
        <ele>101.9</ele>
        <time>2023-11-08T13:53:55Z</time>
      </trkpt>
      <trkpt lat="43.46537" lon="6.32195">
        <ele>101.9</ele>
        <time>2023-11-08T13:54:05Z</time>
      </trkpt>
      <trkpt lat="43.46539" lon="6.32175">
        <ele>101.2</ele>
        <time>2023-11-08T13:54:15Z</time>
      </trkpt>
      <trkpt lat="43.4654" lon="6.32154">
        <ele>100.8</ele>
        <time>2023-11-08T13:54:25Z</time>
      </trkpt>
      <trkpt lat="43.4654" lon="6.32135">
        <ele>100.4</ele>
        <time>2023-11-08T13:54:35Z</time>
      </trkpt>
      <trkpt lat="43.46542" lon="6.32117">
        <ele>99.4</ele>
        <time>2023-11-08T13:54:45Z</time>
      </trkpt>
      <trkpt lat="43.46545" lon="6.32107">
        <ele>99.7</ele>
        <time>2023-11-08T13:54:55Z</time>
      </trkpt>
      <trkpt lat="43.46547" lon="6.32096">
        <ele>99.7</ele>
        <time>2023-11-08T13:55:05Z</time>
      </trkpt>
      <trkpt lat="43.46545" lon="6.32093">
        <ele>99.9</ele>
        <time>2023-11-08T13:55:15Z</time>
      </trkpt>
      <trkpt lat="43.46544" lon="6.32091">
        <ele>99.7</ele>
        <time>2023-11-08T13:55:25Z</time>
      </trkpt>
      <trkpt lat="43.46545" lon="6.3209">
        <ele>99.8</ele>
        <time>2023-11-08T13:55:35Z</time>
      </trkpt>
      <trkpt lat="43.46546" lon="6.32089">
        <ele>99.7</ele>
        <time>2023-11-08T13:55:45Z</time>
      </trkpt>
      <trkpt lat="43.46546" lon="6.32077">
        <ele>100.2</ele>
        <time>2023-11-08T13:55:55Z</time>
      </trkpt>
      <trkpt lat="43.4655" lon="6.32064">
        <ele>100.3</ele>
        <time>2023-11-08T13:56:05Z</time>
      </trkpt>
      <trkpt lat="43.46552" lon="6.32052">
        <ele>99.8</ele>
        <time>2023-11-08T13:56:15Z</time>
      </trkpt>
      <trkpt lat="43.46555" lon="6.32041">
        <ele>100</ele>
        <time>2023-11-08T13:56:25Z</time>
      </trkpt>
      <trkpt lat="43.46558" lon="6.32025">
        <ele>100.6</ele>
        <time>2023-11-08T13:56:35Z</time>
      </trkpt>
      <trkpt lat="43.4656" lon="6.32016">
        <ele>101.3</ele>
        <time>2023-11-08T13:56:45Z</time>
      </trkpt>
      <trkpt lat="43.46559" lon="6.32002">
        <ele>101.4</ele>
        <time>2023-11-08T13:56:55Z</time>
      </trkpt>
      <trkpt lat="43.46557" lon="6.31987">
        <ele>101.3</ele>
        <time>2023-11-08T13:57:05Z</time>
      </trkpt>
      <trkpt lat="43.46558" lon="6.31969">
        <ele>101.8</ele>
        <time>2023-11-08T13:57:15Z</time>
      </trkpt>
      <trkpt lat="43.46556" lon="6.31952">
        <ele>102</ele>
        <time>2023-11-08T13:57:25Z</time>
      </trkpt>
      <trkpt lat="43.46556" lon="6.31933">
        <ele>102.2</ele>
        <time>2023-11-08T13:57:35Z</time>
      </trkpt>
      <trkpt lat="43.46556" lon="6.31914">
        <ele>102.6</ele>
        <time>2023-11-08T13:57:45Z</time>
      </trkpt>
      <trkpt lat="43.46557" lon="6.31898">
        <ele>101.9</ele>
        <time>2023-11-08T13:57:55Z</time>
      </trkpt>
      <trkpt lat="43.46553" lon="6.31882">
        <ele>102.9</ele>
        <time>2023-11-08T13:58:05Z</time>
      </trkpt>
      <trkpt lat="43.46548" lon="6.31867">
        <ele>103.4</ele>
        <time>2023-11-08T13:58:15Z</time>
      </trkpt>
      <trkpt lat="43.46545" lon="6.31849">
        <ele>104</ele>
        <time>2023-11-08T13:58:25Z</time>
      </trkpt>
      <trkpt lat="43.4654" lon="6.31835">
        <ele>103.7</ele>
        <time>2023-11-08T13:58:35Z</time>
      </trkpt>
      <trkpt lat="43.46533" lon="6.3182">
        <ele>103.8</ele>
        <time>2023-11-08T13:58:45Z</time>
      </trkpt>
      <trkpt lat="43.46527" lon="6.31806">
        <ele>103.9</ele>
        <time>2023-11-08T13:58:55Z</time>
      </trkpt>
      <trkpt lat="43.46519" lon="6.31792">
        <ele>103.6</ele>
        <time>2023-11-08T13:59:05Z</time>
      </trkpt>
      <trkpt lat="43.46512" lon="6.31777">
        <ele>103.8</ele>
        <time>2023-11-08T13:59:15Z</time>
      </trkpt>
      <trkpt lat="43.46507" lon="6.31762">
        <ele>103.4</ele>
        <time>2023-11-08T13:59:25Z</time>
      </trkpt>
      <trkpt lat="43.46499" lon="6.31751">
        <ele>103.6</ele>
        <time>2023-11-08T13:59:35Z</time>
      </trkpt>
      <trkpt lat="43.46493" lon="6.31738">
        <ele>103.9</ele>
        <time>2023-11-08T13:59:45Z</time>
      </trkpt>
      <trkpt lat="43.46489" lon="6.31726">
        <ele>104.4</ele>
        <time>2023-11-08T13:59:55Z</time>
      </trkpt>
      <trkpt lat="43.46483" lon="6.31714">
        <ele>105.7</ele>
        <time>2023-11-08T14:00:05Z</time>
      </trkpt>
      <trkpt lat="43.46483" lon="6.31699">
        <ele>105.8</ele>
        <time>2023-11-08T14:00:15Z</time>
      </trkpt>
      <trkpt lat="43.46485" lon="6.31684">
        <ele>107.1</ele>
        <time>2023-11-08T14:00:25Z</time>
      </trkpt>
      <trkpt lat="43.46487" lon="6.31669">
        <ele>107.8</ele>
        <time>2023-11-08T14:00:35Z</time>
      </trkpt>
      <trkpt lat="43.46488" lon="6.31653">
        <ele>108.5</ele>
        <time>2023-11-08T14:00:45Z</time>
      </trkpt>
      <trkpt lat="43.46487" lon="6.31644">
        <ele>109.1</ele>
        <time>2023-11-08T14:00:55Z</time>
      </trkpt>
      <trkpt lat="43.46487" lon="6.31645">
        <ele>109.1</ele>
        <time>2023-11-08T14:01:05Z</time>
      </trkpt>
      <trkpt lat="43.46487" lon="6.31645">
        <ele>108.9</ele>
        <time>2023-11-08T14:01:15Z</time>
      </trkpt>
      <trkpt lat="43.46485" lon="6.31642">
        <ele>109.3</ele>
        <time>2023-11-08T14:01:25Z</time>
      </trkpt>
      <trkpt lat="43.46484" lon="6.31642">
        <ele>109.1</ele>
        <time>2023-11-08T14:01:35Z</time>
      </trkpt>
      <trkpt lat="43.46483" lon="6.31641">
        <ele>109.2</ele>
        <time>2023-11-08T14:01:45Z</time>
      </trkpt>
      <trkpt lat="43.46481" lon="6.3164">
        <ele>109.3</ele>
        <time>2023-11-08T14:01:55Z</time>
      </trkpt>
      <trkpt lat="43.46481" lon="6.3164">
        <ele>109.3</ele>
        <time>2023-11-08T14:02:05Z</time>
      </trkpt>
      <trkpt lat="43.46481" lon="6.31639">
        <ele>109.4</ele>
        <time>2023-11-08T14:02:15Z</time>
      </trkpt>
      <trkpt lat="43.46482" lon="6.31639">
        <ele>109.3</ele>
        <time>2023-11-08T14:02:25Z</time>
      </trkpt>
      <trkpt lat="43.46483" lon="6.3164">
        <ele>109.3</ele>
        <time>2023-11-08T14:02:35Z</time>
      </trkpt>
      <trkpt lat="43.46483" lon="6.3164">
        <ele>109.4</ele>
        <time>2023-11-08T14:02:45Z</time>
      </trkpt>
      <trkpt lat="43.46482" lon="6.31639">
        <ele>109.5</ele>
        <time>2023-11-08T14:02:55Z</time>
      </trkpt>
      <trkpt lat="43.46483" lon="6.31639">
        <ele>108.7</ele>
        <time>2023-11-08T14:03:05Z</time>
      </trkpt>
      <trkpt lat="43.46482" lon="6.31636">
        <ele>109.3</ele>
        <time>2023-11-08T14:03:15Z</time>
      </trkpt>
      <trkpt lat="43.46483" lon="6.31636">
        <ele>109.5</ele>
        <time>2023-11-08T14:03:25Z</time>
      </trkpt>
      <trkpt lat="43.46483" lon="6.31637">
        <ele>109.4</ele>
        <time>2023-11-08T14:03:35Z</time>
      </trkpt>
      <trkpt lat="43.46483" lon="6.31638">
        <ele>109.2</ele>
        <time>2023-11-08T14:03:45Z</time>
      </trkpt>
      <trkpt lat="43.46483" lon="6.31637">
        <ele>109.2</ele>
        <time>2023-11-08T14:03:55Z</time>
      </trkpt>
      <trkpt lat="43.46483" lon="6.31638">
        <ele>109.5</ele>
        <time>2023-11-08T14:04:05Z</time>
      </trkpt>
      <trkpt lat="43.46484" lon="6.31637">
        <ele>109.6</ele>
        <time>2023-11-08T14:04:15Z</time>
      </trkpt>
      <trkpt lat="43.4649" lon="6.31628">
        <ele>110.1</ele>
        <time>2023-11-08T14:04:25Z</time>
      </trkpt>
      <trkpt lat="43.46493" lon="6.31626">
        <ele>109.2</ele>
        <time>2023-11-08T14:04:35Z</time>
      </trkpt>
      <trkpt lat="43.46494" lon="6.31626">
        <ele>109.1</ele>
        <time>2023-11-08T14:04:45Z</time>
      </trkpt>
      <trkpt lat="43.46493" lon="6.31626">
        <ele>108.7</ele>
        <time>2023-11-08T14:04:55Z</time>
      </trkpt>
      <trkpt lat="43.46493" lon="6.31625">
        <ele>108.9</ele>
        <time>2023-11-08T14:05:05Z</time>
      </trkpt>
      <trkpt lat="43.46493" lon="6.31624">
        <ele>109</ele>
        <time>2023-11-08T14:05:15Z</time>
      </trkpt>
      <trkpt lat="43.46498" lon="6.31621">
        <ele>108.9</ele>
        <time>2023-11-08T14:05:25Z</time>
      </trkpt>
      <trkpt lat="43.46501" lon="6.31615">
        <ele>108.5</ele>
        <time>2023-11-08T14:05:35Z</time>
      </trkpt>
      <trkpt lat="43.46513" lon="6.31605">
        <ele>107.1</ele>
        <time>2023-11-08T14:05:45Z</time>
      </trkpt>
      <trkpt lat="43.46526" lon="6.31599">
        <ele>104.4</ele>
        <time>2023-11-08T14:05:55Z</time>
      </trkpt>
      <trkpt lat="43.46536" lon="6.31592">
        <ele>104.2</ele>
        <time>2023-11-08T14:06:05Z</time>
      </trkpt>
      <trkpt lat="43.46542" lon="6.31584">
        <ele>103.3</ele>
        <time>2023-11-08T14:06:15Z</time>
      </trkpt>
      <trkpt lat="43.46545" lon="6.31578">
        <ele>103</ele>
        <time>2023-11-08T14:06:25Z</time>
      </trkpt>
      <trkpt lat="43.46552" lon="6.31566">
        <ele>102.5</ele>
        <time>2023-11-08T14:06:35Z</time>
      </trkpt>
      <trkpt lat="43.46559" lon="6.31552">
        <ele>103</ele>
        <time>2023-11-08T14:06:45Z</time>
      </trkpt>
      <trkpt lat="43.46565" lon="6.31539">
        <ele>102.2</ele>
        <time>2023-11-08T14:06:55Z</time>
      </trkpt>
      <trkpt lat="43.46571" lon="6.31525">
        <ele>103</ele>
        <time>2023-11-08T14:07:05Z</time>
      </trkpt>
      <trkpt lat="43.46578" lon="6.31512">
        <ele>103.2</ele>
        <time>2023-11-08T14:07:15Z</time>
      </trkpt>
      <trkpt lat="43.46584" lon="6.31498">
        <ele>103.6</ele>
        <time>2023-11-08T14:07:25Z</time>
      </trkpt>
      <trkpt lat="43.4659" lon="6.31485">
        <ele>103.5</ele>
        <time>2023-11-08T14:07:35Z</time>
      </trkpt>
      <trkpt lat="43.46597" lon="6.31472">
        <ele>103.4</ele>
        <time>2023-11-08T14:07:45Z</time>
      </trkpt>
      <trkpt lat="43.46602" lon="6.31459">
        <ele>104</ele>
        <time>2023-11-08T14:07:55Z</time>
      </trkpt>
      <trkpt lat="43.46608" lon="6.31445">
        <ele>105.2</ele>
        <time>2023-11-08T14:08:05Z</time>
      </trkpt>
      <trkpt lat="43.46615" lon="6.31433">
        <ele>105.6</ele>
        <time>2023-11-08T14:08:15Z</time>
      </trkpt>
      <trkpt lat="43.4662" lon="6.31419">
        <ele>106.5</ele>
        <time>2023-11-08T14:08:25Z</time>
      </trkpt>
      <trkpt lat="43.46627" lon="6.31405">
        <ele>107.9</ele>
        <time>2023-11-08T14:08:35Z</time>
      </trkpt>
      <trkpt lat="43.46633" lon="6.31391">
        <ele>107.5</ele>
        <time>2023-11-08T14:08:45Z</time>
      </trkpt>
      <trkpt lat="43.4664" lon="6.31378">
        <ele>108</ele>
        <time>2023-11-08T14:08:55Z</time>
      </trkpt>
      <trkpt lat="43.46646" lon="6.31365">
        <ele>108</ele>
        <time>2023-11-08T14:09:05Z</time>
      </trkpt>
      <trkpt lat="43.46654" lon="6.31352">
        <ele>108.9</ele>
        <time>2023-11-08T14:09:15Z</time>
      </trkpt>
      <trkpt lat="43.46661" lon="6.3134">
        <ele>108.9</ele>
        <time>2023-11-08T14:09:25Z</time>
      </trkpt>
      <trkpt lat="43.46667" lon="6.31328">
        <ele>109.3</ele>
        <time>2023-11-08T14:09:35Z</time>
      </trkpt>
      <trkpt lat="43.46675" lon="6.31316">
        <ele>109.5</ele>
        <time>2023-11-08T14:09:45Z</time>
      </trkpt>
      <trkpt lat="43.46682" lon="6.31304">
        <ele>109.4</ele>
        <time>2023-11-08T14:09:55Z</time>
      </trkpt>
      <trkpt lat="43.46687" lon="6.31295">
        <ele>109.7</ele>
        <time>2023-11-08T14:10:05Z</time>
      </trkpt>
      <trkpt lat="43.4669" lon="6.31292">
        <ele>109.2</ele>
        <time>2023-11-08T14:10:15Z</time>
      </trkpt>
      <trkpt lat="43.46691" lon="6.31291">
        <ele>108.6</ele>
        <time>2023-11-08T14:10:25Z</time>
      </trkpt>
      <trkpt lat="43.46692" lon="6.31291">
        <ele>108.8</ele>
        <time>2023-11-08T14:10:35Z</time>
      </trkpt>
      <trkpt lat="43.46691" lon="6.31292">
        <ele>108.9</ele>
        <time>2023-11-08T14:10:45Z</time>
      </trkpt>
      <trkpt lat="43.4669" lon="6.3129">
        <ele>109</ele>
        <time>2023-11-08T14:10:55Z</time>
      </trkpt>
      <trkpt lat="43.4669" lon="6.31289">
        <ele>109.2</ele>
        <time>2023-11-08T14:11:05Z</time>
      </trkpt>
      <trkpt lat="43.4669" lon="6.31289">
        <ele>108.9</ele>
        <time>2023-11-08T14:11:15Z</time>
      </trkpt>
      <trkpt lat="43.46689" lon="6.31289">
        <ele>108.8</ele>
        <time>2023-11-08T14:11:25Z</time>
      </trkpt>
      <trkpt lat="43.46689" lon="6.31289">
        <ele>108.9</ele>
        <time>2023-11-08T14:11:35Z</time>
      </trkpt>
      <trkpt lat="43.46689" lon="6.31289">
        <ele>109.3</ele>
        <time>2023-11-08T14:11:45Z</time>
      </trkpt>
      <trkpt lat="43.4669" lon="6.31289">
        <ele>109.3</ele>
        <time>2023-11-08T14:11:55Z</time>
      </trkpt>
      <trkpt lat="43.4669" lon="6.31289">
        <ele>109.1</ele>
        <time>2023-11-08T14:12:05Z</time>
      </trkpt>
      <trkpt lat="43.46691" lon="6.31288">
        <ele>108.7</ele>
        <time>2023-11-08T14:12:15Z</time>
      </trkpt>
      <trkpt lat="43.46692" lon="6.31287">
        <ele>108.8</ele>
        <time>2023-11-08T14:12:25Z</time>
      </trkpt>
      <trkpt lat="43.46692" lon="6.31287">
        <ele>108.8</ele>
        <time>2023-11-08T14:12:35Z</time>
      </trkpt>
      <trkpt lat="43.46692" lon="6.31287">
        <ele>108.9</ele>
        <time>2023-11-08T14:12:45Z</time>
      </trkpt>
      <trkpt lat="43.46692" lon="6.31286">
        <ele>109</ele>
        <time>2023-11-08T14:12:55Z</time>
      </trkpt>
      <trkpt lat="43.46693" lon="6.31286">
        <ele>109</ele>
        <time>2023-11-08T14:13:05Z</time>
      </trkpt>
      <trkpt lat="43.46694" lon="6.31286">
        <ele>109.1</ele>
        <time>2023-11-08T14:13:15Z</time>
      </trkpt>
      <trkpt lat="43.46695" lon="6.31284">
        <ele>109</ele>
        <time>2023-11-08T14:13:25Z</time>
      </trkpt>
      <trkpt lat="43.46694" lon="6.31275">
        <ele>109.2</ele>
        <time>2023-11-08T14:13:35Z</time>
      </trkpt>
      <trkpt lat="43.46694" lon="6.31273">
        <ele>108.8</ele>
        <time>2023-11-08T14:13:45Z</time>
      </trkpt>
      <trkpt lat="43.46693" lon="6.31272">
        <ele>109.2</ele>
        <time>2023-11-08T14:13:55Z</time>
      </trkpt>
      <trkpt lat="43.46692" lon="6.31271">
        <ele>109.1</ele>
        <time>2023-11-08T14:14:05Z</time>
      </trkpt>
      <trkpt lat="43.46692" lon="6.31271">
        <ele>108.6</ele>
        <time>2023-11-08T14:14:15Z</time>
      </trkpt>
      <trkpt lat="43.46688" lon="6.31267">
        <ele>109.1</ele>
        <time>2023-11-08T14:14:25Z</time>
      </trkpt>
      <trkpt lat="43.46686" lon="6.31256">
        <ele>108.6</ele>
        <time>2023-11-08T14:14:35Z</time>
      </trkpt>
      <trkpt lat="43.46684" lon="6.31243">
        <ele>108.6</ele>
        <time>2023-11-08T14:14:45Z</time>
      </trkpt>
      <trkpt lat="43.46681" lon="6.3123">
        <ele>108.4</ele>
        <time>2023-11-08T14:14:55Z</time>
      </trkpt>
      <trkpt lat="43.46678" lon="6.31222">
        <ele>108.7</ele>
        <time>2023-11-08T14:15:05Z</time>
      </trkpt>
      <trkpt lat="43.46676" lon="6.31221">
        <ele>108.8</ele>
        <time>2023-11-08T14:15:15Z</time>
      </trkpt>
      <trkpt lat="43.46676" lon="6.3121">
        <ele>108.5</ele>
        <time>2023-11-08T14:15:25Z</time>
      </trkpt>
      <trkpt lat="43.46675" lon="6.31197">
        <ele>108.2</ele>
        <time>2023-11-08T14:15:35Z</time>
      </trkpt>
      <trkpt lat="43.46677" lon="6.31182">
        <ele>108</ele>
        <time>2023-11-08T14:15:45Z</time>
      </trkpt>
      <trkpt lat="43.46682" lon="6.31167">
        <ele>108.5</ele>
        <time>2023-11-08T14:15:55Z</time>
      </trkpt>
      <trkpt lat="43.46681" lon="6.31159">
        <ele>109.3</ele>
        <time>2023-11-08T14:16:05Z</time>
      </trkpt>
      <trkpt lat="43.46681" lon="6.31157">
        <ele>110.3</ele>
        <time>2023-11-08T14:16:15Z</time>
      </trkpt>
      <trkpt lat="43.46681" lon="6.31155">
        <ele>110.4</ele>
        <time>2023-11-08T14:16:25Z</time>
      </trkpt>
      <trkpt lat="43.46681" lon="6.31154">
        <ele>110.2</ele>
        <time>2023-11-08T14:16:35Z</time>
      </trkpt>
      <trkpt lat="43.4668" lon="6.31153">
        <ele>110.3</ele>
        <time>2023-11-08T14:16:45Z</time>
      </trkpt>
      <trkpt lat="43.4668" lon="6.31151">
        <ele>110.3</ele>
        <time>2023-11-08T14:16:55Z</time>
      </trkpt>
      <trkpt lat="43.46679" lon="6.3115">
        <ele>110.8</ele>
        <time>2023-11-08T14:17:05Z</time>
      </trkpt>
      <trkpt lat="43.46679" lon="6.31151">
        <ele>110.1</ele>
        <time>2023-11-08T14:17:15Z</time>
      </trkpt>
      <trkpt lat="43.46679" lon="6.31151">
        <ele>110.4</ele>
        <time>2023-11-08T14:17:25Z</time>
      </trkpt>
      <trkpt lat="43.4668" lon="6.31151">
        <ele>110.2</ele>
        <time>2023-11-08T14:17:35Z</time>
      </trkpt>
      <trkpt lat="43.46682" lon="6.31151">
        <ele>110.2</ele>
        <time>2023-11-08T14:17:45Z</time>
      </trkpt>
      <trkpt lat="43.46683" lon="6.31151">
        <ele>110.5</ele>
        <time>2023-11-08T14:17:55Z</time>
      </trkpt>
      <trkpt lat="43.46682" lon="6.31153">
        <ele>110.6</ele>
        <time>2023-11-08T14:18:05Z</time>
      </trkpt>
      <trkpt lat="43.46682" lon="6.31156">
        <ele>110.6</ele>
        <time>2023-11-08T14:18:15Z</time>
      </trkpt>
      <trkpt lat="43.46684" lon="6.31166">
        <ele>109.1</ele>
        <time>2023-11-08T14:18:25Z</time>
      </trkpt>
      <trkpt lat="43.46678" lon="6.31173">
        <ele>108.6</ele>
        <time>2023-11-08T14:18:35Z</time>
      </trkpt>
      <trkpt lat="43.46673" lon="6.31182">
        <ele>108.2</ele>
        <time>2023-11-08T14:18:45Z</time>
      </trkpt>
      <trkpt lat="43.46671" lon="6.31184">
        <ele>108</ele>
        <time>2023-11-08T14:18:55Z</time>
      </trkpt>
      <trkpt lat="43.4667" lon="6.31186">
        <ele>107.8</ele>
        <time>2023-11-08T14:19:05Z</time>
      </trkpt>
      <trkpt lat="43.46671" lon="6.31197">
        <ele>108.1</ele>
        <time>2023-11-08T14:19:15Z</time>
      </trkpt>
      <trkpt lat="43.46671" lon="6.31198">
        <ele>108.1</ele>
        <time>2023-11-08T14:19:25Z</time>
      </trkpt>
      <trkpt lat="43.46672" lon="6.31196">
        <ele>107.8</ele>
        <time>2023-11-08T14:19:35Z</time>
      </trkpt>
      <trkpt lat="43.46673" lon="6.31196">
        <ele>107.7</ele>
        <time>2023-11-08T14:19:45Z</time>
      </trkpt>
      <trkpt lat="43.46673" lon="6.31196">
        <ele>108</ele>
        <time>2023-11-08T14:19:55Z</time>
      </trkpt>
      <trkpt lat="43.46673" lon="6.31196">
        <ele>107.9</ele>
        <time>2023-11-08T14:20:05Z</time>
      </trkpt>
      <trkpt lat="43.46673" lon="6.31196">
        <ele>108.3</ele>
        <time>2023-11-08T14:20:15Z</time>
      </trkpt>
      <trkpt lat="43.46673" lon="6.31195">
        <ele>108.1</ele>
        <time>2023-11-08T14:20:25Z</time>
      </trkpt>
      <trkpt lat="43.46673" lon="6.31195">
        <ele>108</ele>
        <time>2023-11-08T14:20:35Z</time>
      </trkpt>
      <trkpt lat="43.46671" lon="6.31197">
        <ele>107.7</ele>
        <time>2023-11-08T14:20:45Z</time>
      </trkpt>
      <trkpt lat="43.46671" lon="6.31198">
        <ele>108</ele>
        <time>2023-11-08T14:20:55Z</time>
      </trkpt>
      <trkpt lat="43.4667" lon="6.31199">
        <ele>108</ele>
        <time>2023-11-08T14:21:05Z</time>
      </trkpt>
      <trkpt lat="43.46671" lon="6.31198">
        <ele>107.9</ele>
        <time>2023-11-08T14:21:15Z</time>
      </trkpt>
      <trkpt lat="43.46671" lon="6.31198">
        <ele>108</ele>
        <time>2023-11-08T14:21:25Z</time>
      </trkpt>
      <trkpt lat="43.4667" lon="6.31197">
        <ele>107.6</ele>
        <time>2023-11-08T14:21:35Z</time>
      </trkpt>
      <trkpt lat="43.4667" lon="6.31198">
        <ele>107.8</ele>
        <time>2023-11-08T14:21:45Z</time>
      </trkpt>
      <trkpt lat="43.4667" lon="6.31201">
        <ele>108.6</ele>
        <time>2023-11-08T14:21:55Z</time>
      </trkpt>
      <trkpt lat="43.46671" lon="6.31206">
        <ele>108.2</ele>
        <time>2023-11-08T14:22:05Z</time>
      </trkpt>
      <trkpt lat="43.46671" lon="6.31209">
        <ele>108.2</ele>
        <time>2023-11-08T14:22:15Z</time>
      </trkpt>
      <trkpt lat="43.46673" lon="6.31217">
        <ele>107.9</ele>
        <time>2023-11-08T14:22:25Z</time>
      </trkpt>
      <trkpt lat="43.46675" lon="6.31224">
        <ele>108.6</ele>
        <time>2023-11-08T14:22:35Z</time>
      </trkpt>
      <trkpt lat="43.46677" lon="6.31225">
        <ele>108.5</ele>
        <time>2023-11-08T14:22:45Z</time>
      </trkpt>
      <trkpt lat="43.46677" lon="6.31231">
        <ele>108.4</ele>
        <time>2023-11-08T14:22:55Z</time>
      </trkpt>
      <trkpt lat="43.46681" lon="6.31246">
        <ele>109</ele>
        <time>2023-11-08T14:23:05Z</time>
      </trkpt>
      <trkpt lat="43.46684" lon="6.31259">
        <ele>108.3</ele>
        <time>2023-11-08T14:23:15Z</time>
      </trkpt>
      <trkpt lat="43.46688" lon="6.31272">
        <ele>108.2</ele>
        <time>2023-11-08T14:23:25Z</time>
      </trkpt>
      <trkpt lat="43.46697" lon="6.31281">
        <ele>108.6</ele>
        <time>2023-11-08T14:23:35Z</time>
      </trkpt>
      <trkpt lat="43.46704" lon="6.31273">
        <ele>108.2</ele>
        <time>2023-11-08T14:23:45Z</time>
      </trkpt>
      <trkpt lat="43.4671" lon="6.31261">
        <ele>107.2</ele>
        <time>2023-11-08T14:23:55Z</time>
      </trkpt>
      <trkpt lat="43.46716" lon="6.31247">
        <ele>107.3</ele>
        <time>2023-11-08T14:24:05Z</time>
      </trkpt>
      <trkpt lat="43.46725" lon="6.31235">
        <ele>106.6</ele>
        <time>2023-11-08T14:24:15Z</time>
      </trkpt>
      <trkpt lat="43.46732" lon="6.31221">
        <ele>106.5</ele>
        <time>2023-11-08T14:24:25Z</time>
      </trkpt>
      <trkpt lat="43.46741" lon="6.31208">
        <ele>105.7</ele>
        <time>2023-11-08T14:24:35Z</time>
      </trkpt>
      <trkpt lat="43.4675" lon="6.31194">
        <ele>106</ele>
        <time>2023-11-08T14:24:45Z</time>
      </trkpt>
      <trkpt lat="43.46754" lon="6.31186">
        <ele>105.3</ele>
        <time>2023-11-08T14:24:55Z</time>
      </trkpt>
      <trkpt lat="43.46756" lon="6.31181">
        <ele>104.9</ele>
        <time>2023-11-08T14:25:05Z</time>
      </trkpt>
      <trkpt lat="43.46763" lon="6.31168">
        <ele>104.9</ele>
        <time>2023-11-08T14:25:15Z</time>
      </trkpt>
      <trkpt lat="43.46771" lon="6.31154">
        <ele>105.3</ele>
        <time>2023-11-08T14:25:25Z</time>
      </trkpt>
      <trkpt lat="43.4678" lon="6.31143">
        <ele>104.9</ele>
        <time>2023-11-08T14:25:35Z</time>
      </trkpt>
      <trkpt lat="43.46792" lon="6.31138">
        <ele>104.4</ele>
        <time>2023-11-08T14:25:45Z</time>
      </trkpt>
      <trkpt lat="43.46804" lon="6.31135">
        <ele>105</ele>
        <time>2023-11-08T14:25:55Z</time>
      </trkpt>
      <trkpt lat="43.4681" lon="6.3113">
        <ele>105.3</ele>
        <time>2023-11-08T14:26:05Z</time>
      </trkpt>
      <trkpt lat="43.4682" lon="6.31118">
        <ele>105.9</ele>
        <time>2023-11-08T14:26:15Z</time>
      </trkpt>
      <trkpt lat="43.4683" lon="6.31105">
        <ele>105.9</ele>
        <time>2023-11-08T14:26:25Z</time>
      </trkpt>
      <trkpt lat="43.46841" lon="6.31091">
        <ele>106.2</ele>
        <time>2023-11-08T14:26:35Z</time>
      </trkpt>
      <trkpt lat="43.4685" lon="6.31075">
        <ele>105.1</ele>
        <time>2023-11-08T14:26:45Z</time>
      </trkpt>
      <trkpt lat="43.46858" lon="6.3106">
        <ele>105.5</ele>
        <time>2023-11-08T14:26:55Z</time>
      </trkpt>
      <trkpt lat="43.46868" lon="6.31049">
        <ele>106.5</ele>
        <time>2023-11-08T14:27:05Z</time>
      </trkpt>
      <trkpt lat="43.46879" lon="6.31042">
        <ele>106.9</ele>
        <time>2023-11-08T14:27:15Z</time>
      </trkpt>
      <trkpt lat="43.46887" lon="6.3103">
        <ele>107.6</ele>
        <time>2023-11-08T14:27:25Z</time>
      </trkpt>
      <trkpt lat="43.46895" lon="6.31015">
        <ele>108.1</ele>
        <time>2023-11-08T14:27:35Z</time>
      </trkpt>
      <trkpt lat="43.46901" lon="6.30999">
        <ele>109</ele>
        <time>2023-11-08T14:27:45Z</time>
      </trkpt>
      <trkpt lat="43.46908" lon="6.30986">
        <ele>109.7</ele>
        <time>2023-11-08T14:27:55Z</time>
      </trkpt>
      <trkpt lat="43.46916" lon="6.30974">
        <ele>108.7</ele>
        <time>2023-11-08T14:28:05Z</time>
      </trkpt>
      <trkpt lat="43.46922" lon="6.30958">
        <ele>108.2</ele>
        <time>2023-11-08T14:28:15Z</time>
      </trkpt>
      <trkpt lat="43.46921" lon="6.30943">
        <ele>108.4</ele>
        <time>2023-11-08T14:28:25Z</time>
      </trkpt>
      <trkpt lat="43.46914" lon="6.3093">
        <ele>109.4</ele>
        <time>2023-11-08T14:28:35Z</time>
      </trkpt>
      <trkpt lat="43.4691" lon="6.30915">
        <ele>109.8</ele>
        <time>2023-11-08T14:28:45Z</time>
      </trkpt>
      <trkpt lat="43.46908" lon="6.30899">
        <ele>108.5</ele>
        <time>2023-11-08T14:28:55Z</time>
      </trkpt>
      <trkpt lat="43.46906" lon="6.30883">
        <ele>109.2</ele>
        <time>2023-11-08T14:29:05Z</time>
      </trkpt>
      <trkpt lat="43.46906" lon="6.30865">
        <ele>108.5</ele>
        <time>2023-11-08T14:29:15Z</time>
      </trkpt>
      <trkpt lat="43.46909" lon="6.30845">
        <ele>107.9</ele>
        <time>2023-11-08T14:29:25Z</time>
      </trkpt>
      <trkpt lat="43.46913" lon="6.30828">
        <ele>107.7</ele>
        <time>2023-11-08T14:29:35Z</time>
      </trkpt>
      <trkpt lat="43.46921" lon="6.30812">
        <ele>106.6</ele>
        <time>2023-11-08T14:29:45Z</time>
      </trkpt>
      <trkpt lat="43.46928" lon="6.30797">
        <ele>105.9</ele>
        <time>2023-11-08T14:29:55Z</time>
      </trkpt>
      <trkpt lat="43.46935" lon="6.30781">
        <ele>105.1</ele>
        <time>2023-11-08T14:30:05Z</time>
      </trkpt>
      <trkpt lat="43.4694" lon="6.30762">
        <ele>104.8</ele>
        <time>2023-11-08T14:30:15Z</time>
      </trkpt>
      <trkpt lat="43.46947" lon="6.30746">
        <ele>104</ele>
        <time>2023-11-08T14:30:25Z</time>
      </trkpt>
      <trkpt lat="43.46956" lon="6.30732">
        <ele>104</ele>
        <time>2023-11-08T14:30:35Z</time>
      </trkpt>
      <trkpt lat="43.46963" lon="6.30716">
        <ele>104.6</ele>
        <time>2023-11-08T14:30:45Z</time>
      </trkpt>
      <trkpt lat="43.46972" lon="6.30701">
        <ele>103.3</ele>
        <time>2023-11-08T14:30:55Z</time>
      </trkpt>
      <trkpt lat="43.46981" lon="6.30689">
        <ele>102.9</ele>
        <time>2023-11-08T14:31:05Z</time>
      </trkpt>
      <trkpt lat="43.46987" lon="6.30674">
        <ele>103.3</ele>
        <time>2023-11-08T14:31:15Z</time>
      </trkpt>
      <trkpt lat="43.46994" lon="6.30659">
        <ele>102.4</ele>
        <time>2023-11-08T14:31:25Z</time>
      </trkpt>
      <trkpt lat="43.47002" lon="6.30646">
        <ele>102.4</ele>
        <time>2023-11-08T14:31:35Z</time>
      </trkpt>
      <trkpt lat="43.47009" lon="6.30633">
        <ele>102.8</ele>
        <time>2023-11-08T14:31:45Z</time>
      </trkpt>
      <trkpt lat="43.47016" lon="6.30617">
        <ele>103.2</ele>
        <time>2023-11-08T14:31:55Z</time>
      </trkpt>
      <trkpt lat="43.47023" lon="6.30601">
        <ele>103.2</ele>
        <time>2023-11-08T14:32:05Z</time>
      </trkpt>
      <trkpt lat="43.47027" lon="6.30583">
        <ele>103.6</ele>
        <time>2023-11-08T14:32:15Z</time>
      </trkpt>
      <trkpt lat="43.47032" lon="6.30567">
        <ele>104.7</ele>
        <time>2023-11-08T14:32:25Z</time>
      </trkpt>
      <trkpt lat="43.47041" lon="6.30558">
        <ele>104.9</ele>
        <time>2023-11-08T14:32:35Z</time>
      </trkpt>
      <trkpt lat="43.47051" lon="6.30549">
        <ele>105.6</ele>
        <time>2023-11-08T14:32:45Z</time>
      </trkpt>
      <trkpt lat="43.47057" lon="6.30535">
        <ele>105.7</ele>
        <time>2023-11-08T14:32:55Z</time>
      </trkpt>
      <trkpt lat="43.47063" lon="6.30517">
        <ele>105.8</ele>
        <time>2023-11-08T14:33:05Z</time>
      </trkpt>
      <trkpt lat="43.47068" lon="6.30503">
        <ele>105.5</ele>
        <time>2023-11-08T14:33:15Z</time>
      </trkpt>
      <trkpt lat="43.47074" lon="6.3049">
        <ele>105.5</ele>
        <time>2023-11-08T14:33:25Z</time>
      </trkpt>
      <trkpt lat="43.47081" lon="6.30476">
        <ele>105.8</ele>
        <time>2023-11-08T14:33:35Z</time>
      </trkpt>
      <trkpt lat="43.47088" lon="6.30462">
        <ele>105.9</ele>
        <time>2023-11-08T14:33:45Z</time>
      </trkpt>
      <trkpt lat="43.47096" lon="6.30453">
        <ele>106</ele>
        <time>2023-11-08T14:33:55Z</time>
      </trkpt>
      <trkpt lat="43.47105" lon="6.30449">
        <ele>106.6</ele>
        <time>2023-11-08T14:34:05Z</time>
      </trkpt>
      <trkpt lat="43.47114" lon="6.30451">
        <ele>107.1</ele>
        <time>2023-11-08T14:34:15Z</time>
      </trkpt>
      <trkpt lat="43.47121" lon="6.30457">
        <ele>107.8</ele>
        <time>2023-11-08T14:34:25Z</time>
      </trkpt>
      <trkpt lat="43.47125" lon="6.30463">
        <ele>108</ele>
        <time>2023-11-08T14:34:35Z</time>
      </trkpt>
      <trkpt lat="43.47128" lon="6.30464">
        <ele>108.4</ele>
        <time>2023-11-08T14:34:45Z</time>
      </trkpt>
      <trkpt lat="43.4713" lon="6.30464">
        <ele>108.4</ele>
        <time>2023-11-08T14:34:55Z</time>
      </trkpt>
      <trkpt lat="43.47131" lon="6.30464">
        <ele>107.9</ele>
        <time>2023-11-08T14:35:05Z</time>
      </trkpt>
      <trkpt lat="43.47131" lon="6.30464">
        <ele>107.9</ele>
        <time>2023-11-08T14:35:15Z</time>
      </trkpt>
      <trkpt lat="43.4713" lon="6.30464">
        <ele>108.7</ele>
        <time>2023-11-08T14:35:25Z</time>
      </trkpt>
      <trkpt lat="43.4713" lon="6.30465">
        <ele>108.5</ele>
        <time>2023-11-08T14:35:35Z</time>
      </trkpt>
      <trkpt lat="43.47129" lon="6.30466">
        <ele>108.4</ele>
        <time>2023-11-08T14:35:45Z</time>
      </trkpt>
      <trkpt lat="43.4713" lon="6.30466">
        <ele>108.3</ele>
        <time>2023-11-08T14:35:55Z</time>
      </trkpt>
      <trkpt lat="43.4713" lon="6.30466">
        <ele>107.8</ele>
        <time>2023-11-08T14:36:05Z</time>
      </trkpt>
      <trkpt lat="43.47131" lon="6.30466">
        <ele>108.2</ele>
        <time>2023-11-08T14:36:15Z</time>
      </trkpt>
      <trkpt lat="43.47132" lon="6.30465">
        <ele>108.2</ele>
        <time>2023-11-08T14:36:25Z</time>
      </trkpt>
      <trkpt lat="43.47133" lon="6.30463">
        <ele>108.2</ele>
        <time>2023-11-08T14:36:35Z</time>
      </trkpt>
      <trkpt lat="43.47132" lon="6.30463">
        <ele>107.9</ele>
        <time>2023-11-08T14:36:45Z</time>
      </trkpt>
      <trkpt lat="43.47131" lon="6.30464">
        <ele>108.1</ele>
        <time>2023-11-08T14:36:55Z</time>
      </trkpt>
      <trkpt lat="43.47132" lon="6.30464">
        <ele>108.5</ele>
        <time>2023-11-08T14:37:05Z</time>
      </trkpt>
      <trkpt lat="43.47133" lon="6.30465">
        <ele>108.1</ele>
        <time>2023-11-08T14:37:15Z</time>
      </trkpt>
      <trkpt lat="43.47135" lon="6.30466">
        <ele>108.1</ele>
        <time>2023-11-08T14:37:25Z</time>
      </trkpt>
      <trkpt lat="43.47136" lon="6.30466">
        <ele>108.1</ele>
        <time>2023-11-08T14:37:35Z</time>
      </trkpt>
      <trkpt lat="43.47136" lon="6.30466">
        <ele>108.2</ele>
        <time>2023-11-08T14:37:45Z</time>
      </trkpt>
      <trkpt lat="43.47136" lon="6.30467">
        <ele>108.1</ele>
        <time>2023-11-08T14:37:55Z</time>
      </trkpt>
      <trkpt lat="43.47136" lon="6.30467">
        <ele>108</ele>
        <time>2023-11-08T14:38:05Z</time>
      </trkpt>
      <trkpt lat="43.47137" lon="6.30467">
        <ele>108</ele>
        <time>2023-11-08T14:38:15Z</time>
      </trkpt>
      <trkpt lat="43.47137" lon="6.30467">
        <ele>108.1</ele>
        <time>2023-11-08T14:38:25Z</time>
      </trkpt>
      <trkpt lat="43.47137" lon="6.3047">
        <ele>108.1</ele>
        <time>2023-11-08T14:38:35Z</time>
      </trkpt>
      <trkpt lat="43.47136" lon="6.3047">
        <ele>108.2</ele>
        <time>2023-11-08T14:38:45Z</time>
      </trkpt>
      <trkpt lat="43.47135" lon="6.3047">
        <ele>108.3</ele>
        <time>2023-11-08T14:38:55Z</time>
      </trkpt>
      <trkpt lat="43.47134" lon="6.30469">
        <ele>108.1</ele>
        <time>2023-11-08T14:39:05Z</time>
      </trkpt>
      <trkpt lat="43.47137" lon="6.30477">
        <ele>108.1</ele>
        <time>2023-11-08T14:39:15Z</time>
      </trkpt>
      <trkpt lat="43.47139" lon="6.30484">
        <ele>109.3</ele>
        <time>2023-11-08T14:39:25Z</time>
      </trkpt>
      <trkpt lat="43.47135" lon="6.30491">
        <ele>110.4</ele>
        <time>2023-11-08T14:39:35Z</time>
      </trkpt>
      <trkpt lat="43.47127" lon="6.30502">
        <ele>113</ele>
        <time>2023-11-08T14:39:45Z</time>
      </trkpt>
      <trkpt lat="43.47124" lon="6.30516">
        <ele>115.1</ele>
        <time>2023-11-08T14:39:55Z</time>
      </trkpt>
      <trkpt lat="43.47118" lon="6.3053">
        <ele>116.7</ele>
        <time>2023-11-08T14:40:05Z</time>
      </trkpt>
      <trkpt lat="43.47115" lon="6.30542">
        <ele>118.5</ele>
        <time>2023-11-08T14:40:15Z</time>
      </trkpt>
      <trkpt lat="43.47113" lon="6.30558">
        <ele>120.5</ele>
        <time>2023-11-08T14:40:25Z</time>
      </trkpt>
      <trkpt lat="43.47109" lon="6.30571">
        <ele>121.1</ele>
        <time>2023-11-08T14:40:35Z</time>
      </trkpt>
      <trkpt lat="43.47102" lon="6.30586">
        <ele>122.7</ele>
        <time>2023-11-08T14:40:45Z</time>
      </trkpt>
      <trkpt lat="43.47097" lon="6.30601">
        <ele>124.7</ele>
        <time>2023-11-08T14:40:55Z</time>
      </trkpt>
      <trkpt lat="43.4709" lon="6.30613">
        <ele>126.7</ele>
        <time>2023-11-08T14:41:05Z</time>
      </trkpt>
      <trkpt lat="43.47088" lon="6.30628">
        <ele>127.8</ele>
        <time>2023-11-08T14:41:15Z</time>
      </trkpt>
      <trkpt lat="43.47085" lon="6.30648">
        <ele>128.7</ele>
        <time>2023-11-08T14:41:25Z</time>
      </trkpt>
      <trkpt lat="43.47084" lon="6.30668">
        <ele>129.3</ele>
        <time>2023-11-08T14:41:35Z</time>
      </trkpt>
      <trkpt lat="43.47085" lon="6.30686">
        <ele>129.8</ele>
        <time>2023-11-08T14:41:45Z</time>
      </trkpt>
      <trkpt lat="43.47087" lon="6.307">
        <ele>129.9</ele>
        <time>2023-11-08T14:41:55Z</time>
      </trkpt>
      <trkpt lat="43.47089" lon="6.30717">
        <ele>130.4</ele>
        <time>2023-11-08T14:42:05Z</time>
      </trkpt>
      <trkpt lat="43.47088" lon="6.30729">
        <ele>130.8</ele>
        <time>2023-11-08T14:42:15Z</time>
      </trkpt>
      <trkpt lat="43.47086" lon="6.30743">
        <ele>132.3</ele>
        <time>2023-11-08T14:42:25Z</time>
      </trkpt>
      <trkpt lat="43.47085" lon="6.30761">
        <ele>134.4</ele>
        <time>2023-11-08T14:42:35Z</time>
      </trkpt>
      <trkpt lat="43.47084" lon="6.30779">
        <ele>135.7</ele>
        <time>2023-11-08T14:42:45Z</time>
      </trkpt>
      <trkpt lat="43.47084" lon="6.30795">
        <ele>136.4</ele>
        <time>2023-11-08T14:42:55Z</time>
      </trkpt>
      <trkpt lat="43.47082" lon="6.30812">
        <ele>138.4</ele>
        <time>2023-11-08T14:43:05Z</time>
      </trkpt>
      <trkpt lat="43.47083" lon="6.30828">
        <ele>139.3</ele>
        <time>2023-11-08T14:43:15Z</time>
      </trkpt>
      <trkpt lat="43.47089" lon="6.30844">
        <ele>140.2</ele>
        <time>2023-11-08T14:43:25Z</time>
      </trkpt>
      <trkpt lat="43.47089" lon="6.30845">
        <ele>140.9</ele>
        <time>2023-11-08T14:43:35Z</time>
      </trkpt>
      <trkpt lat="43.47091" lon="6.30846">
        <ele>141</ele>
        <time>2023-11-08T14:43:45Z</time>
      </trkpt>
      <trkpt lat="43.47092" lon="6.30846">
        <ele>140.5</ele>
        <time>2023-11-08T14:43:55Z</time>
      </trkpt>
      <trkpt lat="43.47093" lon="6.30846">
        <ele>141</ele>
        <time>2023-11-08T14:44:05Z</time>
      </trkpt>
      <trkpt lat="43.47094" lon="6.30847">
        <ele>140.6</ele>
        <time>2023-11-08T14:44:15Z</time>
      </trkpt>
      <trkpt lat="43.47095" lon="6.30846">
        <ele>140.8</ele>
        <time>2023-11-08T14:44:25Z</time>
      </trkpt>
      <trkpt lat="43.47097" lon="6.30846">
        <ele>141</ele>
        <time>2023-11-08T14:44:35Z</time>
      </trkpt>
      <trkpt lat="43.47098" lon="6.30846">
        <ele>140.8</ele>
        <time>2023-11-08T14:44:45Z</time>
      </trkpt>
      <trkpt lat="43.47098" lon="6.30847">
        <ele>140.9</ele>
        <time>2023-11-08T14:44:55Z</time>
      </trkpt>
      <trkpt lat="43.47099" lon="6.30847">
        <ele>140.8</ele>
        <time>2023-11-08T14:45:05Z</time>
      </trkpt>
      <trkpt lat="43.47099" lon="6.30846">
        <ele>140.8</ele>
        <time>2023-11-08T14:45:15Z</time>
      </trkpt>
      <trkpt lat="43.47097" lon="6.30848">
        <ele>141.1</ele>
        <time>2023-11-08T14:45:25Z</time>
      </trkpt>
      <trkpt lat="43.47097" lon="6.30856">
        <ele>140.4</ele>
        <time>2023-11-08T14:45:35Z</time>
      </trkpt>
      <trkpt lat="43.47095" lon="6.30861">
        <ele>140.4</ele>
        <time>2023-11-08T14:45:45Z</time>
      </trkpt>
      <trkpt lat="43.47095" lon="6.30867">
        <ele>139.9</ele>
        <time>2023-11-08T14:45:55Z</time>
      </trkpt>
      <trkpt lat="43.47095" lon="6.30877">
        <ele>140.4</ele>
        <time>2023-11-08T14:46:05Z</time>
      </trkpt>
      <trkpt lat="43.47095" lon="6.3088">
        <ele>141.5</ele>
        <time>2023-11-08T14:46:15Z</time>
      </trkpt>
      <trkpt lat="43.47095" lon="6.30882">
        <ele>141.1</ele>
        <time>2023-11-08T14:46:25Z</time>
      </trkpt>
      <trkpt lat="43.47096" lon="6.30885">
        <ele>141.7</ele>
        <time>2023-11-08T14:46:35Z</time>
      </trkpt>
      <trkpt lat="43.47098" lon="6.30886">
        <ele>141.7</ele>
        <time>2023-11-08T14:46:45Z</time>
      </trkpt>
      <trkpt lat="43.471" lon="6.30886">
        <ele>141.8</ele>
        <time>2023-11-08T14:46:55Z</time>
      </trkpt>
      <trkpt lat="43.47101" lon="6.30885">
        <ele>141.9</ele>
        <time>2023-11-08T14:47:05Z</time>
      </trkpt>
      <trkpt lat="43.471" lon="6.30889">
        <ele>141.4</ele>
        <time>2023-11-08T14:47:15Z</time>
      </trkpt>
      <trkpt lat="43.47101" lon="6.30895">
        <ele>140.6</ele>
        <time>2023-11-08T14:47:25Z</time>
      </trkpt>
      <trkpt lat="43.47103" lon="6.309">
        <ele>140.9</ele>
        <time>2023-11-08T14:47:35Z</time>
      </trkpt>
      <trkpt lat="43.47105" lon="6.30908">
        <ele>140.7</ele>
        <time>2023-11-08T14:47:45Z</time>
      </trkpt>
      <trkpt lat="43.47104" lon="6.30913">
        <ele>140.4</ele>
        <time>2023-11-08T14:47:55Z</time>
      </trkpt>
      <trkpt lat="43.47104" lon="6.30917">
        <ele>140.5</ele>
        <time>2023-11-08T14:48:05Z</time>
      </trkpt>
      <trkpt lat="43.47103" lon="6.30924">
        <ele>139.7</ele>
        <time>2023-11-08T14:48:15Z</time>
      </trkpt>
      <trkpt lat="43.47103" lon="6.3093">
        <ele>138.7</ele>
        <time>2023-11-08T14:48:25Z</time>
      </trkpt>
      <trkpt lat="43.47102" lon="6.30939">
        <ele>138.3</ele>
        <time>2023-11-08T14:48:35Z</time>
      </trkpt>
      <trkpt lat="43.47103" lon="6.30944">
        <ele>138</ele>
        <time>2023-11-08T14:48:45Z</time>
      </trkpt>
      <trkpt lat="43.47104" lon="6.30955">
        <ele>138.3</ele>
        <time>2023-11-08T14:48:55Z</time>
      </trkpt>
      <trkpt lat="43.47103" lon="6.30963">
        <ele>138.7</ele>
        <time>2023-11-08T14:49:05Z</time>
      </trkpt>
      <trkpt lat="43.47102" lon="6.30976">
        <ele>139.1</ele>
        <time>2023-11-08T14:49:15Z</time>
      </trkpt>
      <trkpt lat="43.471" lon="6.30984">
        <ele>140.6</ele>
        <time>2023-11-08T14:49:25Z</time>
      </trkpt>
      <trkpt lat="43.47101" lon="6.30994">
        <ele>142</ele>
        <time>2023-11-08T14:49:35Z</time>
      </trkpt>
      <trkpt lat="43.47103" lon="6.31004">
        <ele>142.7</ele>
        <time>2023-11-08T14:49:45Z</time>
      </trkpt>
      <trkpt lat="43.47102" lon="6.31012">
        <ele>143.5</ele>
        <time>2023-11-08T14:49:55Z</time>
      </trkpt>
      <trkpt lat="43.47098" lon="6.31018">
        <ele>145.2</ele>
        <time>2023-11-08T14:50:05Z</time>
      </trkpt>
      <trkpt lat="43.47098" lon="6.31031">
        <ele>146.7</ele>
        <time>2023-11-08T14:50:15Z</time>
      </trkpt>
      <trkpt lat="43.47097" lon="6.3104">
        <ele>147.7</ele>
        <time>2023-11-08T14:50:25Z</time>
      </trkpt>
      <trkpt lat="43.47096" lon="6.31047">
        <ele>149.2</ele>
        <time>2023-11-08T14:50:35Z</time>
      </trkpt>
      <trkpt lat="43.47094" lon="6.31061">
        <ele>150.3</ele>
        <time>2023-11-08T14:50:45Z</time>
      </trkpt>
      <trkpt lat="43.471" lon="6.31074">
        <ele>151.5</ele>
        <time>2023-11-08T14:50:55Z</time>
      </trkpt>
      <trkpt lat="43.47109" lon="6.31079">
        <ele>151</ele>
        <time>2023-11-08T14:51:05Z</time>
      </trkpt>
      <trkpt lat="43.47118" lon="6.31084">
        <ele>151.3</ele>
        <time>2023-11-08T14:51:15Z</time>
      </trkpt>
      <trkpt lat="43.47127" lon="6.31088">
        <ele>151.8</ele>
        <time>2023-11-08T14:51:25Z</time>
      </trkpt>
      <trkpt lat="43.47136" lon="6.31092">
        <ele>152.5</ele>
        <time>2023-11-08T14:51:35Z</time>
      </trkpt>
      <trkpt lat="43.47144" lon="6.31097">
        <ele>153.7</ele>
        <time>2023-11-08T14:51:45Z</time>
      </trkpt>
      <trkpt lat="43.47151" lon="6.31105">
        <ele>154.6</ele>
        <time>2023-11-08T14:51:55Z</time>
      </trkpt>
      <trkpt lat="43.47151" lon="6.31116">
        <ele>155.2</ele>
        <time>2023-11-08T14:52:05Z</time>
      </trkpt>
      <trkpt lat="43.47148" lon="6.31128">
        <ele>155.5</ele>
        <time>2023-11-08T14:52:15Z</time>
      </trkpt>
      <trkpt lat="43.47145" lon="6.3114">
        <ele>155.8</ele>
        <time>2023-11-08T14:52:25Z</time>
      </trkpt>
      <trkpt lat="43.47147" lon="6.31149">
        <ele>156.5</ele>
        <time>2023-11-08T14:52:35Z</time>
      </trkpt>
      <trkpt lat="43.47153" lon="6.31156">
        <ele>157.5</ele>
        <time>2023-11-08T14:52:45Z</time>
      </trkpt>
      <trkpt lat="43.4716" lon="6.31161">
        <ele>159.6</ele>
        <time>2023-11-08T14:52:55Z</time>
      </trkpt>
      <trkpt lat="43.47167" lon="6.31166">
        <ele>160.9</ele>
        <time>2023-11-08T14:53:05Z</time>
      </trkpt>
      <trkpt lat="43.47174" lon="6.3117">
        <ele>162.5</ele>
        <time>2023-11-08T14:53:15Z</time>
      </trkpt>
      <trkpt lat="43.4718" lon="6.31174">
        <ele>164.3</ele>
        <time>2023-11-08T14:53:25Z</time>
      </trkpt>
      <trkpt lat="43.47182" lon="6.31176">
        <ele>164.8</ele>
        <time>2023-11-08T14:53:35Z</time>
      </trkpt>
      <trkpt lat="43.47181" lon="6.31178">
        <ele>165</ele>
        <time>2023-11-08T14:53:45Z</time>
      </trkpt>
      <trkpt lat="43.47182" lon="6.31179">
        <ele>165</ele>
        <time>2023-11-08T14:53:55Z</time>
      </trkpt>
      <trkpt lat="43.47186" lon="6.31183">
        <ele>165.5</ele>
        <time>2023-11-08T14:54:05Z</time>
      </trkpt>
      <trkpt lat="43.47187" lon="6.31184">
        <ele>166.2</ele>
        <time>2023-11-08T14:54:15Z</time>
      </trkpt>
      <trkpt lat="43.47187" lon="6.31186">
        <ele>166.1</ele>
        <time>2023-11-08T14:54:25Z</time>
      </trkpt>
      <trkpt lat="43.47186" lon="6.31187">
        <ele>166.4</ele>
        <time>2023-11-08T14:54:35Z</time>
      </trkpt>
      <trkpt lat="43.47187" lon="6.31187">
        <ele>167.1</ele>
        <time>2023-11-08T14:54:45Z</time>
      </trkpt>
      <trkpt lat="43.47188" lon="6.31187">
        <ele>166.8</ele>
        <time>2023-11-08T14:54:55Z</time>
      </trkpt>
      <trkpt lat="43.47187" lon="6.31187">
        <ele>166.6</ele>
        <time>2023-11-08T14:55:05Z</time>
      </trkpt>
      <trkpt lat="43.47189" lon="6.31188">
        <ele>166.6</ele>
        <time>2023-11-08T14:55:15Z</time>
      </trkpt>
      <trkpt lat="43.47191" lon="6.31193">
        <ele>167.5</ele>
        <time>2023-11-08T14:55:25Z</time>
      </trkpt>
      <trkpt lat="43.47195" lon="6.31196">
        <ele>170.2</ele>
        <time>2023-11-08T14:55:35Z</time>
      </trkpt>
      <trkpt lat="43.47197" lon="6.31196">
        <ele>171.2</ele>
        <time>2023-11-08T14:55:45Z</time>
      </trkpt>
      <trkpt lat="43.472" lon="6.31195">
        <ele>171.3</ele>
        <time>2023-11-08T14:55:55Z</time>
      </trkpt>
      <trkpt lat="43.47202" lon="6.31194">
        <ele>171.7</ele>
        <time>2023-11-08T14:56:05Z</time>
      </trkpt>
      <trkpt lat="43.47203" lon="6.31193">
        <ele>171.5</ele>
        <time>2023-11-08T14:56:15Z</time>
      </trkpt>
      <trkpt lat="43.47205" lon="6.31191">
        <ele>171.9</ele>
        <time>2023-11-08T14:56:25Z</time>
      </trkpt>
      <trkpt lat="43.47205" lon="6.31191">
        <ele>172.3</ele>
        <time>2023-11-08T14:56:35Z</time>
      </trkpt>
      <trkpt lat="43.47206" lon="6.3119">
        <ele>172.6</ele>
        <time>2023-11-08T14:56:45Z</time>
      </trkpt>
      <trkpt lat="43.47207" lon="6.31191">
        <ele>172.7</ele>
        <time>2023-11-08T14:56:55Z</time>
      </trkpt>
      <trkpt lat="43.47207" lon="6.31195">
        <ele>172.9</ele>
        <time>2023-11-08T14:57:05Z</time>
      </trkpt>
      <trkpt lat="43.47207" lon="6.31196">
        <ele>173.2</ele>
        <time>2023-11-08T14:57:15Z</time>
      </trkpt>
      <trkpt lat="43.47207" lon="6.31197">
        <ele>173.7</ele>
        <time>2023-11-08T14:57:25Z</time>
      </trkpt>
      <trkpt lat="43.47212" lon="6.31201">
        <ele>174.4</ele>
        <time>2023-11-08T14:57:35Z</time>
      </trkpt>
      <trkpt lat="43.47213" lon="6.31197">
        <ele>174.8</ele>
        <time>2023-11-08T14:57:45Z</time>
      </trkpt>
      <trkpt lat="43.47213" lon="6.31198">
        <ele>175</ele>
        <time>2023-11-08T14:57:55Z</time>
      </trkpt>
      <trkpt lat="43.47216" lon="6.312">
        <ele>175.9</ele>
        <time>2023-11-08T14:58:05Z</time>
      </trkpt>
      <trkpt lat="43.47216" lon="6.31201">
        <ele>175.3</ele>
        <time>2023-11-08T14:58:15Z</time>
      </trkpt>
      <trkpt lat="43.47217" lon="6.31202">
        <ele>175.3</ele>
        <time>2023-11-08T14:58:25Z</time>
      </trkpt>
      <trkpt lat="43.4722" lon="6.31206">
        <ele>176.2</ele>
        <time>2023-11-08T14:58:35Z</time>
      </trkpt>
      <trkpt lat="43.47221" lon="6.31207">
        <ele>177.4</ele>
        <time>2023-11-08T14:58:45Z</time>
      </trkpt>
      <trkpt lat="43.47223" lon="6.31208">
        <ele>177.2</ele>
        <time>2023-11-08T14:58:55Z</time>
      </trkpt>
      <trkpt lat="43.47226" lon="6.3121">
        <ele>178.2</ele>
        <time>2023-11-08T14:59:05Z</time>
      </trkpt>
      <trkpt lat="43.4723" lon="6.3121">
        <ele>178.6</ele>
        <time>2023-11-08T14:59:15Z</time>
      </trkpt>
      <trkpt lat="43.47234" lon="6.3121">
        <ele>179.4</ele>
        <time>2023-11-08T14:59:25Z</time>
      </trkpt>
      <trkpt lat="43.47235" lon="6.31211">
        <ele>179.4</ele>
        <time>2023-11-08T14:59:35Z</time>
      </trkpt>
      <trkpt lat="43.47236" lon="6.3121">
        <ele>180</ele>
        <time>2023-11-08T14:59:45Z</time>
      </trkpt>
      <trkpt lat="43.47237" lon="6.3121">
        <ele>179.9</ele>
        <time>2023-11-08T14:59:55Z</time>
      </trkpt>
      <trkpt lat="43.47238" lon="6.31212">
        <ele>180.9</ele>
        <time>2023-11-08T15:00:05Z</time>
      </trkpt>
      <trkpt lat="43.47239" lon="6.31213">
        <ele>180.8</ele>
        <time>2023-11-08T15:00:15Z</time>
      </trkpt>
      <trkpt lat="43.4724" lon="6.31213">
        <ele>180.5</ele>
        <time>2023-11-08T15:00:25Z</time>
      </trkpt>
      <trkpt lat="43.47243" lon="6.31214">
        <ele>181.4</ele>
        <time>2023-11-08T15:00:35Z</time>
      </trkpt>
      <trkpt lat="43.47245" lon="6.31217">
        <ele>182.2</ele>
        <time>2023-11-08T15:00:45Z</time>
      </trkpt>
      <trkpt lat="43.4725" lon="6.31221">
        <ele>182.6</ele>
        <time>2023-11-08T15:00:55Z</time>
      </trkpt>
      <trkpt lat="43.47255" lon="6.31225">
        <ele>183.5</ele>
        <time>2023-11-08T15:01:05Z</time>
      </trkpt>
      <trkpt lat="43.47261" lon="6.3123">
        <ele>184.3</ele>
        <time>2023-11-08T15:01:15Z</time>
      </trkpt>
      <trkpt lat="43.47267" lon="6.31234">
        <ele>185.8</ele>
        <time>2023-11-08T15:01:25Z</time>
      </trkpt>
      <trkpt lat="43.47272" lon="6.31239">
        <ele>187.4</ele>
        <time>2023-11-08T15:01:35Z</time>
      </trkpt>
      <trkpt lat="43.47273" lon="6.31239">
        <ele>188.5</ele>
        <time>2023-11-08T15:01:45Z</time>
      </trkpt>
      <trkpt lat="43.47275" lon="6.3124">
        <ele>188.5</ele>
        <time>2023-11-08T15:01:55Z</time>
      </trkpt>
      <trkpt lat="43.47277" lon="6.3124">
        <ele>188.8</ele>
        <time>2023-11-08T15:02:05Z</time>
      </trkpt>
      <trkpt lat="43.47278" lon="6.31241">
        <ele>189</ele>
        <time>2023-11-08T15:02:15Z</time>
      </trkpt>
      <trkpt lat="43.47279" lon="6.31243">
        <ele>189.1</ele>
        <time>2023-11-08T15:02:25Z</time>
      </trkpt>
      <trkpt lat="43.47279" lon="6.31244">
        <ele>188.9</ele>
        <time>2023-11-08T15:02:35Z</time>
      </trkpt>
      <trkpt lat="43.47278" lon="6.31245">
        <ele>188.9</ele>
        <time>2023-11-08T15:02:45Z</time>
      </trkpt>
      <trkpt lat="43.47279" lon="6.31245">
        <ele>188.8</ele>
        <time>2023-11-08T15:02:55Z</time>
      </trkpt>
      <trkpt lat="43.47279" lon="6.31244">
        <ele>188.8</ele>
        <time>2023-11-08T15:03:05Z</time>
      </trkpt>
      <trkpt lat="43.47279" lon="6.31245">
        <ele>188.6</ele>
        <time>2023-11-08T15:03:15Z</time>
      </trkpt>
      <trkpt lat="43.47279" lon="6.31245">
        <ele>188.7</ele>
        <time>2023-11-08T15:03:25Z</time>
      </trkpt>
      <trkpt lat="43.47279" lon="6.31244">
        <ele>188.8</ele>
        <time>2023-11-08T15:03:35Z</time>
      </trkpt>
      <trkpt lat="43.47279" lon="6.31244">
        <ele>188.6</ele>
        <time>2023-11-08T15:03:45Z</time>
      </trkpt>
      <trkpt lat="43.47279" lon="6.31244">
        <ele>188.7</ele>
        <time>2023-11-08T15:03:55Z</time>
      </trkpt>
      <trkpt lat="43.47279" lon="6.31245">
        <ele>188.8</ele>
        <time>2023-11-08T15:04:05Z</time>
      </trkpt>
      <trkpt lat="43.4728" lon="6.31245">
        <ele>188.9</ele>
        <time>2023-11-08T15:04:15Z</time>
      </trkpt>
      <trkpt lat="43.47279" lon="6.31245">
        <ele>188.7</ele>
        <time>2023-11-08T15:04:25Z</time>
      </trkpt>
      <trkpt lat="43.4728" lon="6.31245">
        <ele>188.5</ele>
        <time>2023-11-08T15:04:35Z</time>
      </trkpt>
      <trkpt lat="43.47279" lon="6.31245">
        <ele>188.6</ele>
        <time>2023-11-08T15:04:45Z</time>
      </trkpt>
      <trkpt lat="43.47279" lon="6.31245">
        <ele>188.6</ele>
        <time>2023-11-08T15:04:55Z</time>
      </trkpt>
      <trkpt lat="43.4728" lon="6.31245">
        <ele>188.8</ele>
        <time>2023-11-08T15:05:05Z</time>
      </trkpt>
      <trkpt lat="43.4728" lon="6.31248">
        <ele>189.3</ele>
        <time>2023-11-08T15:05:15Z</time>
      </trkpt>
      <trkpt lat="43.47283" lon="6.31254">
        <ele>189.4</ele>
        <time>2023-11-08T15:05:25Z</time>
      </trkpt>
      <trkpt lat="43.47288" lon="6.31262">
        <ele>190.4</ele>
        <time>2023-11-08T15:05:35Z</time>
      </trkpt>
      <trkpt lat="43.47297" lon="6.31267">
        <ele>191</ele>
        <time>2023-11-08T15:05:45Z</time>
      </trkpt>
      <trkpt lat="43.47305" lon="6.31272">
        <ele>191.1</ele>
        <time>2023-11-08T15:05:55Z</time>
      </trkpt>
      <trkpt lat="43.4731" lon="6.3128">
        <ele>191.9</ele>
        <time>2023-11-08T15:06:05Z</time>
      </trkpt>
      <trkpt lat="43.4731" lon="6.31289">
        <ele>192.2</ele>
        <time>2023-11-08T15:06:15Z</time>
      </trkpt>
      <trkpt lat="43.47305" lon="6.31298">
        <ele>192.5</ele>
        <time>2023-11-08T15:06:25Z</time>
      </trkpt>
      <trkpt lat="43.473" lon="6.31305">
        <ele>192.8</ele>
        <time>2023-11-08T15:06:35Z</time>
      </trkpt>
      <trkpt lat="43.47295" lon="6.31314">
        <ele>193.3</ele>
        <time>2023-11-08T15:06:45Z</time>
      </trkpt>
      <trkpt lat="43.47297" lon="6.31328">
        <ele>193.6</ele>
        <time>2023-11-08T15:06:55Z</time>
      </trkpt>
      <trkpt lat="43.47297" lon="6.31338">
        <ele>194.1</ele>
        <time>2023-11-08T15:07:05Z</time>
      </trkpt>
      <trkpt lat="43.47301" lon="6.31351">
        <ele>194.4</ele>
        <time>2023-11-08T15:07:15Z</time>
      </trkpt>
      <trkpt lat="43.47308" lon="6.3136">
        <ele>194.4</ele>
        <time>2023-11-08T15:07:25Z</time>
      </trkpt>
      <trkpt lat="43.47316" lon="6.31369">
        <ele>194.9</ele>
        <time>2023-11-08T15:07:35Z</time>
      </trkpt>
      <trkpt lat="43.47324" lon="6.31376">
        <ele>194.9</ele>
        <time>2023-11-08T15:07:45Z</time>
      </trkpt>
      <trkpt lat="43.47333" lon="6.31381">
        <ele>194.7</ele>
        <time>2023-11-08T15:07:55Z</time>
      </trkpt>
      <trkpt lat="43.47343" lon="6.31382">
        <ele>194.4</ele>
        <time>2023-11-08T15:08:05Z</time>
      </trkpt>
      <trkpt lat="43.47351" lon="6.31391">
        <ele>194.4</ele>
        <time>2023-11-08T15:08:15Z</time>
      </trkpt>
      <trkpt lat="43.4736" lon="6.31397">
        <ele>194.5</ele>
        <time>2023-11-08T15:08:25Z</time>
      </trkpt>
      <trkpt lat="43.4737" lon="6.31399">
        <ele>194.8</ele>
        <time>2023-11-08T15:08:35Z</time>
      </trkpt>
      <trkpt lat="43.47377" lon="6.314">
        <ele>194.9</ele>
        <time>2023-11-08T15:08:45Z</time>
      </trkpt>
      <trkpt lat="43.47386" lon="6.31407">
        <ele>195.1</ele>
        <time>2023-11-08T15:08:55Z</time>
      </trkpt>
      <trkpt lat="43.47393" lon="6.31413">
        <ele>194.3</ele>
        <time>2023-11-08T15:09:05Z</time>
      </trkpt>
      <trkpt lat="43.47394" lon="6.31421">
        <ele>194.6</ele>
        <time>2023-11-08T15:09:15Z</time>
      </trkpt>
      <trkpt lat="43.47393" lon="6.31432">
        <ele>195.2</ele>
        <time>2023-11-08T15:09:25Z</time>
      </trkpt>
      <trkpt lat="43.47392" lon="6.31445">
        <ele>194.8</ele>
        <time>2023-11-08T15:09:35Z</time>
      </trkpt>
      <trkpt lat="43.47391" lon="6.31457">
        <ele>194.7</ele>
        <time>2023-11-08T15:09:45Z</time>
      </trkpt>
      <trkpt lat="43.4739" lon="6.31471">
        <ele>195</ele>
        <time>2023-11-08T15:09:55Z</time>
      </trkpt>
      <trkpt lat="43.47388" lon="6.31484">
        <ele>194.8</ele>
        <time>2023-11-08T15:10:05Z</time>
      </trkpt>
      <trkpt lat="43.47385" lon="6.31498">
        <ele>194.3</ele>
        <time>2023-11-08T15:10:15Z</time>
      </trkpt>
      <trkpt lat="43.47385" lon="6.31512">
        <ele>194.2</ele>
        <time>2023-11-08T15:10:25Z</time>
      </trkpt>
      <trkpt lat="43.47382" lon="6.31527">
        <ele>193.5</ele>
        <time>2023-11-08T15:10:35Z</time>
      </trkpt>
      <trkpt lat="43.4738" lon="6.31542">
        <ele>193.3</ele>
        <time>2023-11-08T15:10:45Z</time>
      </trkpt>
      <trkpt lat="43.47377" lon="6.31556">
        <ele>192.6</ele>
        <time>2023-11-08T15:10:55Z</time>
      </trkpt>
      <trkpt lat="43.47373" lon="6.31572">
        <ele>192.9</ele>
        <time>2023-11-08T15:11:05Z</time>
      </trkpt>
      <trkpt lat="43.47372" lon="6.31587">
        <ele>192.2</ele>
        <time>2023-11-08T15:11:15Z</time>
      </trkpt>
      <trkpt lat="43.47372" lon="6.31605">
        <ele>191.6</ele>
        <time>2023-11-08T15:11:25Z</time>
      </trkpt>
      <trkpt lat="43.47372" lon="6.31622">
        <ele>190.5</ele>
        <time>2023-11-08T15:11:35Z</time>
      </trkpt>
      <trkpt lat="43.47372" lon="6.31637">
        <ele>190.1</ele>
        <time>2023-11-08T15:11:45Z</time>
      </trkpt>
      <trkpt lat="43.4737" lon="6.3165">
        <ele>188.7</ele>
        <time>2023-11-08T15:11:55Z</time>
      </trkpt>
      <trkpt lat="43.47367" lon="6.31665">
        <ele>187.3</ele>
        <time>2023-11-08T15:12:05Z</time>
      </trkpt>
      <trkpt lat="43.47371" lon="6.31678">
        <ele>186.4</ele>
        <time>2023-11-08T15:12:15Z</time>
      </trkpt>
      <trkpt lat="43.47374" lon="6.31692">
        <ele>185.8</ele>
        <time>2023-11-08T15:12:25Z</time>
      </trkpt>
      <trkpt lat="43.47376" lon="6.31706">
        <ele>185</ele>
        <time>2023-11-08T15:12:35Z</time>
      </trkpt>
      <trkpt lat="43.47378" lon="6.31721">
        <ele>184</ele>
        <time>2023-11-08T15:12:45Z</time>
      </trkpt>
      <trkpt lat="43.47375" lon="6.3173">
        <ele>182.5</ele>
        <time>2023-11-08T15:12:55Z</time>
      </trkpt>
      <trkpt lat="43.47373" lon="6.31733">
        <ele>180.8</ele>
        <time>2023-11-08T15:13:05Z</time>
      </trkpt>
      <trkpt lat="43.47374" lon="6.31737">
        <ele>180.4</ele>
        <time>2023-11-08T15:13:15Z</time>
      </trkpt>
      <trkpt lat="43.47375" lon="6.31738">
        <ele>179.9</ele>
        <time>2023-11-08T15:13:25Z</time>
      </trkpt>
      <trkpt lat="43.47374" lon="6.31746">
        <ele>179</ele>
        <time>2023-11-08T15:13:35Z</time>
      </trkpt>
      <trkpt lat="43.4737" lon="6.31752">
        <ele>177.7</ele>
        <time>2023-11-08T15:13:45Z</time>
      </trkpt>
      <trkpt lat="43.47364" lon="6.31759">
        <ele>175.9</ele>
        <time>2023-11-08T15:13:55Z</time>
      </trkpt>
      <trkpt lat="43.47361" lon="6.31771">
        <ele>173.3</ele>
        <time>2023-11-08T15:14:05Z</time>
      </trkpt>
      <trkpt lat="43.47364" lon="6.31789">
        <ele>171.1</ele>
        <time>2023-11-08T15:14:15Z</time>
      </trkpt>
      <trkpt lat="43.47368" lon="6.318">
        <ele>168.1</ele>
        <time>2023-11-08T15:14:25Z</time>
      </trkpt>
      <trkpt lat="43.47377" lon="6.31808">
        <ele>167.2</ele>
        <time>2023-11-08T15:14:35Z</time>
      </trkpt>
      <trkpt lat="43.47385" lon="6.31812">
        <ele>165.9</ele>
        <time>2023-11-08T15:14:45Z</time>
      </trkpt>
      <trkpt lat="43.47394" lon="6.31815">
        <ele>164.5</ele>
        <time>2023-11-08T15:14:55Z</time>
      </trkpt>
      <trkpt lat="43.47405" lon="6.31817">
        <ele>163.3</ele>
        <time>2023-11-08T15:15:05Z</time>
      </trkpt>
      <trkpt lat="43.47416" lon="6.31819">
        <ele>163</ele>
        <time>2023-11-08T15:15:15Z</time>
      </trkpt>
      <trkpt lat="43.47426" lon="6.31816">
        <ele>162.7</ele>
        <time>2023-11-08T15:15:25Z</time>
      </trkpt>
      <trkpt lat="43.47429" lon="6.31815">
        <ele>162.3</ele>
        <time>2023-11-08T15:15:35Z</time>
      </trkpt>
      <trkpt lat="43.47423" lon="6.31821">
        <ele>161.2</ele>
        <time>2023-11-08T15:15:45Z</time>
      </trkpt>
      <trkpt lat="43.47415" lon="6.31826">
        <ele>159.9</ele>
        <time>2023-11-08T15:15:55Z</time>
      </trkpt>
      <trkpt lat="43.47409" lon="6.31832">
        <ele>158.9</ele>
        <time>2023-11-08T15:16:05Z</time>
      </trkpt>
      <trkpt lat="43.47404" lon="6.31838">
        <ele>158.2</ele>
        <time>2023-11-08T15:16:15Z</time>
      </trkpt>
      <trkpt lat="43.47394" lon="6.31846">
        <ele>157.6</ele>
        <time>2023-11-08T15:16:25Z</time>
      </trkpt>
      <trkpt lat="43.47387" lon="6.31854">
        <ele>155.2</ele>
        <time>2023-11-08T15:16:35Z</time>
      </trkpt>
      <trkpt lat="43.47378" lon="6.31863">
        <ele>153.5</ele>
        <time>2023-11-08T15:16:45Z</time>
      </trkpt>
      <trkpt lat="43.4737" lon="6.31872">
        <ele>151.8</ele>
        <time>2023-11-08T15:16:55Z</time>
      </trkpt>
      <trkpt lat="43.47369" lon="6.31881">
        <ele>150.8</ele>
        <time>2023-11-08T15:17:05Z</time>
      </trkpt>
      <trkpt lat="43.47376" lon="6.31892">
        <ele>150.2</ele>
        <time>2023-11-08T15:17:15Z</time>
      </trkpt>
      <trkpt lat="43.47387" lon="6.31902">
        <ele>149.5</ele>
        <time>2023-11-08T15:17:25Z</time>
      </trkpt>
      <trkpt lat="43.47398" lon="6.31908">
        <ele>149.5</ele>
        <time>2023-11-08T15:17:35Z</time>
      </trkpt>
      <trkpt lat="43.47409" lon="6.31912">
        <ele>149.9</ele>
        <time>2023-11-08T15:17:45Z</time>
      </trkpt>
      <trkpt lat="43.47413" lon="6.31909">
        <ele>149.3</ele>
        <time>2023-11-08T15:17:55Z</time>
      </trkpt>
      <trkpt lat="43.47424" lon="6.31913">
        <ele>149.5</ele>
        <time>2023-11-08T15:18:05Z</time>
      </trkpt>
      <trkpt lat="43.47434" lon="6.31918">
        <ele>149.7</ele>
        <time>2023-11-08T15:18:15Z</time>
      </trkpt>
      <trkpt lat="43.47445" lon="6.31921">
        <ele>149.7</ele>
        <time>2023-11-08T15:18:25Z</time>
      </trkpt>
      <trkpt lat="43.47454" lon="6.31923">
        <ele>149.2</ele>
        <time>2023-11-08T15:18:35Z</time>
      </trkpt>
      <trkpt lat="43.47456" lon="6.3192">
        <ele>149.5</ele>
        <time>2023-11-08T15:18:45Z</time>
      </trkpt>
      <trkpt lat="43.47456" lon="6.3192">
        <ele>149.7</ele>
        <time>2023-11-08T15:18:55Z</time>
      </trkpt>
      <trkpt lat="43.4746" lon="6.31921">
        <ele>149.9</ele>
        <time>2023-11-08T15:19:05Z</time>
      </trkpt>
      <trkpt lat="43.47461" lon="6.31919">
        <ele>149.9</ele>
        <time>2023-11-08T15:19:15Z</time>
      </trkpt>
      <trkpt lat="43.47461" lon="6.31918">
        <ele>149.9</ele>
        <time>2023-11-08T15:19:25Z</time>
      </trkpt>
      <trkpt lat="43.47462" lon="6.31916">
        <ele>149.9</ele>
        <time>2023-11-08T15:19:35Z</time>
      </trkpt>
      <trkpt lat="43.47463" lon="6.31916">
        <ele>149.8</ele>
        <time>2023-11-08T15:19:45Z</time>
      </trkpt>
      <trkpt lat="43.47464" lon="6.31915">
        <ele>149.9</ele>
        <time>2023-11-08T15:19:55Z</time>
      </trkpt>
      <trkpt lat="43.47464" lon="6.31915">
        <ele>149.9</ele>
        <time>2023-11-08T15:20:05Z</time>
      </trkpt>
      <trkpt lat="43.47463" lon="6.3192">
        <ele>149.6</ele>
        <time>2023-11-08T15:20:15Z</time>
      </trkpt>
      <trkpt lat="43.47462" lon="6.31922">
        <ele>149.6</ele>
        <time>2023-11-08T15:20:25Z</time>
      </trkpt>
      <trkpt lat="43.47461" lon="6.31926">
        <ele>151</ele>
        <time>2023-11-08T15:20:35Z</time>
      </trkpt>
      <trkpt lat="43.47459" lon="6.31931">
        <ele>150.7</ele>
        <time>2023-11-08T15:20:45Z</time>
      </trkpt>
      <trkpt lat="43.47457" lon="6.31938">
        <ele>152.5</ele>
        <time>2023-11-08T15:20:55Z</time>
      </trkpt>
      <trkpt lat="43.47457" lon="6.31941">
        <ele>153.5</ele>
        <time>2023-11-08T15:21:05Z</time>
      </trkpt>
      <trkpt lat="43.47457" lon="6.31941">
        <ele>153.9</ele>
        <time>2023-11-08T15:21:15Z</time>
      </trkpt>
      <trkpt lat="43.47454" lon="6.31946">
        <ele>153.7</ele>
        <time>2023-11-08T15:21:25Z</time>
      </trkpt>
      <trkpt lat="43.47454" lon="6.31949">
        <ele>155.6</ele>
        <time>2023-11-08T15:21:35Z</time>
      </trkpt>
      <trkpt lat="43.47451" lon="6.31954">
        <ele>156.4</ele>
        <time>2023-11-08T15:21:45Z</time>
      </trkpt>
      <trkpt lat="43.47448" lon="6.31965">
        <ele>158.1</ele>
        <time>2023-11-08T15:21:55Z</time>
      </trkpt>
      <trkpt lat="43.47441" lon="6.31972">
        <ele>159.1</ele>
        <time>2023-11-08T15:22:05Z</time>
      </trkpt>
      <trkpt lat="43.47431" lon="6.31977">
        <ele>160</ele>
        <time>2023-11-08T15:22:15Z</time>
      </trkpt>
      <trkpt lat="43.47422" lon="6.31979">
        <ele>160.3</ele>
        <time>2023-11-08T15:22:25Z</time>
      </trkpt>
      <trkpt lat="43.47414" lon="6.31989">
        <ele>161</ele>
        <time>2023-11-08T15:22:35Z</time>
      </trkpt>
      <trkpt lat="43.47403" lon="6.32005">
        <ele>161.9</ele>
        <time>2023-11-08T15:22:45Z</time>
      </trkpt>
      <trkpt lat="43.47393" lon="6.32017">
        <ele>161.9</ele>
        <time>2023-11-08T15:22:55Z</time>
      </trkpt>
      <trkpt lat="43.47386" lon="6.32027">
        <ele>161.9</ele>
        <time>2023-11-08T15:23:05Z</time>
      </trkpt>
      <trkpt lat="43.47377" lon="6.3204">
        <ele>162.4</ele>
        <time>2023-11-08T15:23:15Z</time>
      </trkpt>
      <trkpt lat="43.47367" lon="6.32053">
        <ele>163</ele>
        <time>2023-11-08T15:23:25Z</time>
      </trkpt>
      <trkpt lat="43.47361" lon="6.32067">
        <ele>165.4</ele>
        <time>2023-11-08T15:23:35Z</time>
      </trkpt>
      <trkpt lat="43.47356" lon="6.32076">
        <ele>166.4</ele>
        <time>2023-11-08T15:23:45Z</time>
      </trkpt>
      <trkpt lat="43.47347" lon="6.32077">
        <ele>167.8</ele>
        <time>2023-11-08T15:23:55Z</time>
      </trkpt>
      <trkpt lat="43.47336" lon="6.32078">
        <ele>168.6</ele>
        <time>2023-11-08T15:24:05Z</time>
      </trkpt>
      <trkpt lat="43.47329" lon="6.32084">
        <ele>170.5</ele>
        <time>2023-11-08T15:24:15Z</time>
      </trkpt>
      <trkpt lat="43.47328" lon="6.32096">
        <ele>171.6</ele>
        <time>2023-11-08T15:24:25Z</time>
      </trkpt>
      <trkpt lat="43.47326" lon="6.32114">
        <ele>172.9</ele>
        <time>2023-11-08T15:24:35Z</time>
      </trkpt>
      <trkpt lat="43.47327" lon="6.3213">
        <ele>173.9</ele>
        <time>2023-11-08T15:24:45Z</time>
      </trkpt>
      <trkpt lat="43.47322" lon="6.32143">
        <ele>176.1</ele>
        <time>2023-11-08T15:24:55Z</time>
      </trkpt>
      <trkpt lat="43.47317" lon="6.32156">
        <ele>177.2</ele>
        <time>2023-11-08T15:25:05Z</time>
      </trkpt>
      <trkpt lat="43.47313" lon="6.32171">
        <ele>178.5</ele>
        <time>2023-11-08T15:25:15Z</time>
      </trkpt>
      <trkpt lat="43.47311" lon="6.32175">
        <ele>179.6</ele>
        <time>2023-11-08T15:25:25Z</time>
      </trkpt>
      <trkpt lat="43.47307" lon="6.32185">
        <ele>179.4</ele>
        <time>2023-11-08T15:25:35Z</time>
      </trkpt>
      <trkpt lat="43.47302" lon="6.32198">
        <ele>179.4</ele>
        <time>2023-11-08T15:25:45Z</time>
      </trkpt>
      <trkpt lat="43.47301" lon="6.32203">
        <ele>179.6</ele>
        <time>2023-11-08T15:25:55Z</time>
      </trkpt>
      <trkpt lat="43.47301" lon="6.32205">
        <ele>179.8</ele>
        <time>2023-11-08T15:26:05Z</time>
      </trkpt>
      <trkpt lat="43.47301" lon="6.32207">
        <ele>179.6</ele>
        <time>2023-11-08T15:26:15Z</time>
      </trkpt>
      <trkpt lat="43.473" lon="6.32208">
        <ele>179.8</ele>
        <time>2023-11-08T15:26:25Z</time>
      </trkpt>
      <trkpt lat="43.47296" lon="6.32216">
        <ele>179.5</ele>
        <time>2023-11-08T15:26:35Z</time>
      </trkpt>
      <trkpt lat="43.47292" lon="6.32224">
        <ele>179.1</ele>
        <time>2023-11-08T15:26:45Z</time>
      </trkpt>
      <trkpt lat="43.47289" lon="6.32232">
        <ele>178.2</ele>
        <time>2023-11-08T15:26:55Z</time>
      </trkpt>
      <trkpt lat="43.47287" lon="6.32235">
        <ele>177.3</ele>
        <time>2023-11-08T15:27:05Z</time>
      </trkpt>
      <trkpt lat="43.47285" lon="6.3224">
        <ele>176.7</ele>
        <time>2023-11-08T15:27:15Z</time>
      </trkpt>
      <trkpt lat="43.47282" lon="6.32247">
        <ele>175.1</ele>
        <time>2023-11-08T15:27:25Z</time>
      </trkpt>
      <trkpt lat="43.47276" lon="6.32251">
        <ele>173.8</ele>
        <time>2023-11-08T15:27:35Z</time>
      </trkpt>
      <trkpt lat="43.47269" lon="6.32253">
        <ele>173.1</ele>
        <time>2023-11-08T15:27:45Z</time>
      </trkpt>
      <trkpt lat="43.47262" lon="6.32255">
        <ele>173.3</ele>
        <time>2023-11-08T15:27:55Z</time>
      </trkpt>
      <trkpt lat="43.47258" lon="6.32258">
        <ele>173.4</ele>
        <time>2023-11-08T15:28:05Z</time>
      </trkpt>
      <trkpt lat="43.47248" lon="6.3226">
        <ele>173.6</ele>
        <time>2023-11-08T15:28:15Z</time>
      </trkpt>
      <trkpt lat="43.4724" lon="6.32263">
        <ele>173.6</ele>
        <time>2023-11-08T15:28:25Z</time>
      </trkpt>
      <trkpt lat="43.47232" lon="6.32266">
        <ele>173.7</ele>
        <time>2023-11-08T15:28:35Z</time>
      </trkpt>
      <trkpt lat="43.47226" lon="6.3227">
        <ele>173.2</ele>
        <time>2023-11-08T15:28:45Z</time>
      </trkpt>
      <trkpt lat="43.47225" lon="6.32276">
        <ele>172.2</ele>
        <time>2023-11-08T15:28:55Z</time>
      </trkpt>
      <trkpt lat="43.47225" lon="6.32281">
        <ele>170.9</ele>
        <time>2023-11-08T15:29:05Z</time>
      </trkpt>
      <trkpt lat="43.47223" lon="6.32286">
        <ele>170.8</ele>
        <time>2023-11-08T15:29:15Z</time>
      </trkpt>
      <trkpt lat="43.47223" lon="6.32291">
        <ele>169.5</ele>
        <time>2023-11-08T15:29:25Z</time>
      </trkpt>
      <trkpt lat="43.47223" lon="6.32296">
        <ele>167.9</ele>
        <time>2023-11-08T15:29:35Z</time>
      </trkpt>
      <trkpt lat="43.47223" lon="6.32298">
        <ele>167.7</ele>
        <time>2023-11-08T15:29:45Z</time>
      </trkpt>
      <trkpt lat="43.47222" lon="6.323">
        <ele>167.6</ele>
        <time>2023-11-08T15:29:55Z</time>
      </trkpt>
      <trkpt lat="43.47221" lon="6.32304">
        <ele>167.6</ele>
        <time>2023-11-08T15:30:05Z</time>
      </trkpt>
      <trkpt lat="43.47221" lon="6.32309">
        <ele>166.8</ele>
        <time>2023-11-08T15:30:15Z</time>
      </trkpt>
      <trkpt lat="43.47227" lon="6.3232">
        <ele>166</ele>
        <time>2023-11-08T15:30:25Z</time>
      </trkpt>
      <trkpt lat="43.47234" lon="6.32325">
        <ele>165.1</ele>
        <time>2023-11-08T15:30:35Z</time>
      </trkpt>
      <trkpt lat="43.47238" lon="6.32328">
        <ele>164.2</ele>
        <time>2023-11-08T15:30:45Z</time>
      </trkpt>
      <trkpt lat="43.47238" lon="6.32328">
        <ele>163.9</ele>
        <time>2023-11-08T15:30:55Z</time>
      </trkpt>
      <trkpt lat="43.47239" lon="6.32328">
        <ele>163.8</ele>
        <time>2023-11-08T15:31:05Z</time>
      </trkpt>
      <trkpt lat="43.47238" lon="6.32325">
        <ele>164.1</ele>
        <time>2023-11-08T15:31:15Z</time>
      </trkpt>
      <trkpt lat="43.47238" lon="6.32325">
        <ele>163.4</ele>
        <time>2023-11-08T15:31:25Z</time>
      </trkpt>
      <trkpt lat="43.47237" lon="6.32324">
        <ele>164</ele>
        <time>2023-11-08T15:31:35Z</time>
      </trkpt>
      <trkpt lat="43.47237" lon="6.32323">
        <ele>164.4</ele>
        <time>2023-11-08T15:31:45Z</time>
      </trkpt>
      <trkpt lat="43.47236" lon="6.32322">
        <ele>164</ele>
        <time>2023-11-08T15:31:55Z</time>
      </trkpt>
      <trkpt lat="43.47236" lon="6.32322">
        <ele>163.8</ele>
        <time>2023-11-08T15:32:05Z</time>
      </trkpt>
      <trkpt lat="43.47237" lon="6.32321">
        <ele>163.7</ele>
        <time>2023-11-08T15:32:15Z</time>
      </trkpt>
      <trkpt lat="43.47237" lon="6.32321">
        <ele>163.8</ele>
        <time>2023-11-08T15:32:25Z</time>
      </trkpt>
      <trkpt lat="43.47243" lon="6.32322">
        <ele>163.4</ele>
        <time>2023-11-08T15:32:35Z</time>
      </trkpt>
      <trkpt lat="43.47252" lon="6.32318">
        <ele>163.3</ele>
        <time>2023-11-08T15:32:45Z</time>
      </trkpt>
      <trkpt lat="43.47261" lon="6.32317">
        <ele>163.4</ele>
        <time>2023-11-08T15:32:55Z</time>
      </trkpt>
      <trkpt lat="43.4727" lon="6.32314">
        <ele>162.4</ele>
        <time>2023-11-08T15:33:05Z</time>
      </trkpt>
      <trkpt lat="43.4728" lon="6.32309">
        <ele>161.6</ele>
        <time>2023-11-08T15:33:15Z</time>
      </trkpt>
      <trkpt lat="43.47289" lon="6.32307">
        <ele>160.3</ele>
        <time>2023-11-08T15:33:25Z</time>
      </trkpt>
      <trkpt lat="43.47299" lon="6.32307">
        <ele>159.7</ele>
        <time>2023-11-08T15:33:35Z</time>
      </trkpt>
      <trkpt lat="43.47308" lon="6.32305">
        <ele>159.2</ele>
        <time>2023-11-08T15:33:45Z</time>
      </trkpt>
      <trkpt lat="43.47318" lon="6.32304">
        <ele>158.6</ele>
        <time>2023-11-08T15:33:55Z</time>
      </trkpt>
      <trkpt lat="43.47326" lon="6.32305">
        <ele>158.7</ele>
        <time>2023-11-08T15:34:05Z</time>
      </trkpt>
      <trkpt lat="43.47334" lon="6.32303">
        <ele>159</ele>
        <time>2023-11-08T15:34:15Z</time>
      </trkpt>
      <trkpt lat="43.47343" lon="6.32303">
        <ele>159.4</ele>
        <time>2023-11-08T15:34:25Z</time>
      </trkpt>
      <trkpt lat="43.47355" lon="6.32303">
        <ele>159.5</ele>
        <time>2023-11-08T15:34:35Z</time>
      </trkpt>
      <trkpt lat="43.47365" lon="6.32305">
        <ele>159.5</ele>
        <time>2023-11-08T15:34:45Z</time>
      </trkpt>
      <trkpt lat="43.47379" lon="6.32309">
        <ele>158.9</ele>
        <time>2023-11-08T15:34:55Z</time>
      </trkpt>
      <trkpt lat="43.47391" lon="6.32313">
        <ele>160</ele>
        <time>2023-11-08T15:35:05Z</time>
      </trkpt>
      <trkpt lat="43.474" lon="6.32315">
        <ele>160.1</ele>
        <time>2023-11-08T15:35:15Z</time>
      </trkpt>
      <trkpt lat="43.4741" lon="6.32316">
        <ele>160.6</ele>
        <time>2023-11-08T15:35:25Z</time>
      </trkpt>
      <trkpt lat="43.4742" lon="6.32318">
        <ele>160.7</ele>
        <time>2023-11-08T15:35:35Z</time>
      </trkpt>
      <trkpt lat="43.47431" lon="6.3232">
        <ele>161.2</ele>
        <time>2023-11-08T15:35:45Z</time>
      </trkpt>
      <trkpt lat="43.4744" lon="6.32324">
        <ele>161.4</ele>
        <time>2023-11-08T15:35:55Z</time>
      </trkpt>
      <trkpt lat="43.47452" lon="6.32325">
        <ele>161.9</ele>
        <time>2023-11-08T15:36:05Z</time>
      </trkpt>
      <trkpt lat="43.47463" lon="6.32326">
        <ele>161.8</ele>
        <time>2023-11-08T15:36:15Z</time>
      </trkpt>
      <trkpt lat="43.47475" lon="6.3233">
        <ele>162.1</ele>
        <time>2023-11-08T15:36:25Z</time>
      </trkpt>
      <trkpt lat="43.47487" lon="6.32336">
        <ele>161.6</ele>
        <time>2023-11-08T15:36:35Z</time>
      </trkpt>
      <trkpt lat="43.47497" lon="6.32342">
        <ele>161.7</ele>
        <time>2023-11-08T15:36:45Z</time>
      </trkpt>
      <trkpt lat="43.4751" lon="6.32339">
        <ele>161</ele>
        <time>2023-11-08T15:36:55Z</time>
      </trkpt>
      <trkpt lat="43.47521" lon="6.32335">
        <ele>161</ele>
        <time>2023-11-08T15:37:05Z</time>
      </trkpt>
      <trkpt lat="43.47532" lon="6.32327">
        <ele>160.9</ele>
        <time>2023-11-08T15:37:15Z</time>
      </trkpt>
      <trkpt lat="43.47538" lon="6.32312">
        <ele>160.9</ele>
        <time>2023-11-08T15:37:25Z</time>
      </trkpt>
      <trkpt lat="43.47535" lon="6.32299">
        <ele>160.4</ele>
        <time>2023-11-08T15:37:35Z</time>
      </trkpt>
      <trkpt lat="43.47528" lon="6.32288">
        <ele>159.4</ele>
        <time>2023-11-08T15:37:45Z</time>
      </trkpt>
      <trkpt lat="43.47525" lon="6.32273">
        <ele>159.4</ele>
        <time>2023-11-08T15:37:55Z</time>
      </trkpt>
      <trkpt lat="43.4753" lon="6.32259">
        <ele>159.6</ele>
        <time>2023-11-08T15:38:05Z</time>
      </trkpt>
      <trkpt lat="43.47536" lon="6.3225">
        <ele>158.6</ele>
        <time>2023-11-08T15:38:15Z</time>
      </trkpt>
      <trkpt lat="43.47543" lon="6.32241">
        <ele>159.1</ele>
        <time>2023-11-08T15:38:25Z</time>
      </trkpt>
      <trkpt lat="43.47551" lon="6.32231">
        <ele>157.5</ele>
        <time>2023-11-08T15:38:35Z</time>
      </trkpt>
      <trkpt lat="43.4756" lon="6.32221">
        <ele>156.2</ele>
        <time>2023-11-08T15:38:45Z</time>
      </trkpt>
      <trkpt lat="43.47567" lon="6.32212">
        <ele>155.2</ele>
        <time>2023-11-08T15:38:55Z</time>
      </trkpt>
      <trkpt lat="43.47573" lon="6.32199">
        <ele>153.9</ele>
        <time>2023-11-08T15:39:05Z</time>
      </trkpt>
      <trkpt lat="43.47576" lon="6.32185">
        <ele>154.6</ele>
        <time>2023-11-08T15:39:15Z</time>
      </trkpt>
      <trkpt lat="43.47581" lon="6.32171">
        <ele>153.1</ele>
        <time>2023-11-08T15:39:25Z</time>
      </trkpt>
      <trkpt lat="43.47585" lon="6.32156">
        <ele>152.6</ele>
        <time>2023-11-08T15:39:35Z</time>
      </trkpt>
      <trkpt lat="43.4759" lon="6.32141">
        <ele>151.5</ele>
        <time>2023-11-08T15:39:45Z</time>
      </trkpt>
      <trkpt lat="43.47595" lon="6.32127">
        <ele>150.3</ele>
        <time>2023-11-08T15:39:55Z</time>
      </trkpt>
      <trkpt lat="43.47601" lon="6.32114">
        <ele>149.2</ele>
        <time>2023-11-08T15:40:05Z</time>
      </trkpt>
      <trkpt lat="43.47606" lon="6.3211">
        <ele>148.6</ele>
        <time>2023-11-08T15:40:15Z</time>
      </trkpt>
      <trkpt lat="43.47614" lon="6.32109">
        <ele>148</ele>
        <time>2023-11-08T15:40:25Z</time>
      </trkpt>
      <trkpt lat="43.47622" lon="6.32109">
        <ele>147.5</ele>
        <time>2023-11-08T15:40:35Z</time>
      </trkpt>
      <trkpt lat="43.47627" lon="6.32119">
        <ele>146.3</ele>
        <time>2023-11-08T15:40:45Z</time>
      </trkpt>
      <trkpt lat="43.47631" lon="6.3213">
        <ele>145.2</ele>
        <time>2023-11-08T15:40:55Z</time>
      </trkpt>
      <trkpt lat="43.47637" lon="6.32141">
        <ele>144.4</ele>
        <time>2023-11-08T15:41:05Z</time>
      </trkpt>
      <trkpt lat="43.47643" lon="6.32154">
        <ele>143.6</ele>
        <time>2023-11-08T15:41:15Z</time>
      </trkpt>
      <trkpt lat="43.47651" lon="6.32165">
        <ele>142.9</ele>
        <time>2023-11-08T15:41:25Z</time>
      </trkpt>
      <trkpt lat="43.47656" lon="6.32177">
        <ele>141.8</ele>
        <time>2023-11-08T15:41:35Z</time>
      </trkpt>
      <trkpt lat="43.47662" lon="6.32189">
        <ele>141.2</ele>
        <time>2023-11-08T15:41:45Z</time>
      </trkpt>
      <trkpt lat="43.47667" lon="6.322">
        <ele>140.5</ele>
        <time>2023-11-08T15:41:55Z</time>
      </trkpt>
      <trkpt lat="43.47673" lon="6.32211">
        <ele>140.1</ele>
        <time>2023-11-08T15:42:05Z</time>
      </trkpt>
      <trkpt lat="43.4768" lon="6.3222">
        <ele>139.2</ele>
        <time>2023-11-08T15:42:15Z</time>
      </trkpt>
      <trkpt lat="43.47687" lon="6.32229">
        <ele>138.1</ele>
        <time>2023-11-08T15:42:25Z</time>
      </trkpt>
      <trkpt lat="43.47693" lon="6.32235">
        <ele>137.6</ele>
        <time>2023-11-08T15:42:35Z</time>
      </trkpt>
      <trkpt lat="43.47696" lon="6.32248">
        <ele>136.8</ele>
        <time>2023-11-08T15:42:45Z</time>
      </trkpt>
      <trkpt lat="43.47697" lon="6.32252">
        <ele>136</ele>
        <time>2023-11-08T15:42:55Z</time>
      </trkpt>
      <trkpt lat="43.47701" lon="6.32261">
        <ele>135.8</ele>
        <time>2023-11-08T15:43:05Z</time>
      </trkpt>
      <trkpt lat="43.47703" lon="6.32271">
        <ele>134.8</ele>
        <time>2023-11-08T15:43:15Z</time>
      </trkpt>
      <trkpt lat="43.47706" lon="6.3228">
        <ele>134</ele>
        <time>2023-11-08T15:43:25Z</time>
      </trkpt>
      <trkpt lat="43.47709" lon="6.32291">
        <ele>133.4</ele>
        <time>2023-11-08T15:43:35Z</time>
      </trkpt>
      <trkpt lat="43.47711" lon="6.32301">
        <ele>132.9</ele>
        <time>2023-11-08T15:43:45Z</time>
      </trkpt>
      <trkpt lat="43.47714" lon="6.32312">
        <ele>132.3</ele>
        <time>2023-11-08T15:43:55Z</time>
      </trkpt>
      <trkpt lat="43.47717" lon="6.32324">
        <ele>131.6</ele>
        <time>2023-11-08T15:44:05Z</time>
      </trkpt>
      <trkpt lat="43.47721" lon="6.32334">
        <ele>130.7</ele>
        <time>2023-11-08T15:44:15Z</time>
      </trkpt>
      <trkpt lat="43.47723" lon="6.32342">
        <ele>129.8</ele>
        <time>2023-11-08T15:44:25Z</time>
      </trkpt>
      <trkpt lat="43.47726" lon="6.32355">
        <ele>129.1</ele>
        <time>2023-11-08T15:44:35Z</time>
      </trkpt>
      <trkpt lat="43.47732" lon="6.32367">
        <ele>128.8</ele>
        <time>2023-11-08T15:44:45Z</time>
      </trkpt>
      <trkpt lat="43.4774" lon="6.32378">
        <ele>128.2</ele>
        <time>2023-11-08T15:44:55Z</time>
      </trkpt>
      <trkpt lat="43.47747" lon="6.32391">
        <ele>127.5</ele>
        <time>2023-11-08T15:45:05Z</time>
      </trkpt>
      <trkpt lat="43.47753" lon="6.32403">
        <ele>127.1</ele>
        <time>2023-11-08T15:45:15Z</time>
      </trkpt>
      <trkpt lat="43.47757" lon="6.32418">
        <ele>126.8</ele>
        <time>2023-11-08T15:45:25Z</time>
      </trkpt>
      <trkpt lat="43.4776" lon="6.32431">
        <ele>127.1</ele>
        <time>2023-11-08T15:45:35Z</time>
      </trkpt>
      <trkpt lat="43.47766" lon="6.32444">
        <ele>127.4</ele>
        <time>2023-11-08T15:45:45Z</time>
      </trkpt>
      <trkpt lat="43.47769" lon="6.32457">
        <ele>127.3</ele>
        <time>2023-11-08T15:45:55Z</time>
      </trkpt>
      <trkpt lat="43.47771" lon="6.3247">
        <ele>127.6</ele>
        <time>2023-11-08T15:46:05Z</time>
      </trkpt>
      <trkpt lat="43.47774" lon="6.32484">
        <ele>128.1</ele>
        <time>2023-11-08T15:46:15Z</time>
      </trkpt>
      <trkpt lat="43.47774" lon="6.32496">
        <ele>129.2</ele>
        <time>2023-11-08T15:46:25Z</time>
      </trkpt>
      <trkpt lat="43.47774" lon="6.32509">
        <ele>129.9</ele>
        <time>2023-11-08T15:46:35Z</time>
      </trkpt>
      <trkpt lat="43.47775" lon="6.3252">
        <ele>131.2</ele>
        <time>2023-11-08T15:46:45Z</time>
      </trkpt>
      <trkpt lat="43.47777" lon="6.3253">
        <ele>132.2</ele>
        <time>2023-11-08T15:46:55Z</time>
      </trkpt>
      <trkpt lat="43.47778" lon="6.32543">
        <ele>132.9</ele>
        <time>2023-11-08T15:47:05Z</time>
      </trkpt>
      <trkpt lat="43.47778" lon="6.32557">
        <ele>133.7</ele>
        <time>2023-11-08T15:47:15Z</time>
      </trkpt>
      <trkpt lat="43.47779" lon="6.32571">
        <ele>134.1</ele>
        <time>2023-11-08T15:47:25Z</time>
      </trkpt>
      <trkpt lat="43.47784" lon="6.32583">
        <ele>134.9</ele>
        <time>2023-11-08T15:47:35Z</time>
      </trkpt>
      <trkpt lat="43.47788" lon="6.32593">
        <ele>136.2</ele>
        <time>2023-11-08T15:47:45Z</time>
      </trkpt>
      <trkpt lat="43.47794" lon="6.32602">
        <ele>137.3</ele>
        <time>2023-11-08T15:47:55Z</time>
      </trkpt>
      <trkpt lat="43.478" lon="6.32613">
        <ele>137.8</ele>
        <time>2023-11-08T15:48:05Z</time>
      </trkpt>
      <trkpt lat="43.47805" lon="6.32623">
        <ele>138.3</ele>
        <time>2023-11-08T15:48:15Z</time>
      </trkpt>
      <trkpt lat="43.47809" lon="6.32636">
        <ele>138.8</ele>
        <time>2023-11-08T15:48:25Z</time>
      </trkpt>
      <trkpt lat="43.47813" lon="6.32647">
        <ele>140.2</ele>
        <time>2023-11-08T15:48:35Z</time>
      </trkpt>
      <trkpt lat="43.47818" lon="6.32657">
        <ele>141.4</ele>
        <time>2023-11-08T15:48:45Z</time>
      </trkpt>
      <trkpt lat="43.47823" lon="6.32669">
        <ele>141.9</ele>
        <time>2023-11-08T15:48:55Z</time>
      </trkpt>
      <trkpt lat="43.47825" lon="6.32673">
        <ele>143.3</ele>
        <time>2023-11-08T15:49:05Z</time>
      </trkpt>
      <trkpt lat="43.47824" lon="6.32676">
        <ele>143.4</ele>
        <time>2023-11-08T15:49:15Z</time>
      </trkpt>
      <trkpt lat="43.47824" lon="6.32678">
        <ele>143.3</ele>
        <time>2023-11-08T15:49:25Z</time>
      </trkpt>
      <trkpt lat="43.47824" lon="6.32679">
        <ele>143.3</ele>
        <time>2023-11-08T15:49:35Z</time>
      </trkpt>
      <trkpt lat="43.47824" lon="6.32681">
        <ele>143.3</ele>
        <time>2023-11-08T15:49:45Z</time>
      </trkpt>
      <trkpt lat="43.47827" lon="6.32684">
        <ele>143.2</ele>
        <time>2023-11-08T15:49:55Z</time>
      </trkpt>
      <trkpt lat="43.4783" lon="6.32687">
        <ele>143.2</ele>
        <time>2023-11-08T15:50:05Z</time>
      </trkpt>
      <trkpt lat="43.47838" lon="6.32695">
        <ele>143.7</ele>
        <time>2023-11-08T15:50:15Z</time>
      </trkpt>
      <trkpt lat="43.47845" lon="6.32704">
        <ele>143.6</ele>
        <time>2023-11-08T15:50:25Z</time>
      </trkpt>
      <trkpt lat="43.47852" lon="6.3271">
        <ele>143.5</ele>
        <time>2023-11-08T15:50:35Z</time>
      </trkpt>
      <trkpt lat="43.4786" lon="6.32717">
        <ele>142.9</ele>
        <time>2023-11-08T15:50:45Z</time>
      </trkpt>
      <trkpt lat="43.47868" lon="6.32721">
        <ele>142.1</ele>
        <time>2023-11-08T15:50:55Z</time>
      </trkpt>
      <trkpt lat="43.47879" lon="6.3273">
        <ele>142.5</ele>
        <time>2023-11-08T15:51:05Z</time>
      </trkpt>
      <trkpt lat="43.47888" lon="6.32736">
        <ele>141.3</ele>
        <time>2023-11-08T15:51:15Z</time>
      </trkpt>
      <trkpt lat="43.47899" lon="6.32743">
        <ele>141.3</ele>
        <time>2023-11-08T15:51:25Z</time>
      </trkpt>
      <trkpt lat="43.4791" lon="6.3275">
        <ele>142.1</ele>
        <time>2023-11-08T15:51:35Z</time>
      </trkpt>
      <trkpt lat="43.4792" lon="6.32755">
        <ele>143.2</ele>
        <time>2023-11-08T15:51:45Z</time>
      </trkpt>
      <trkpt lat="43.47928" lon="6.32757">
        <ele>142.1</ele>
        <time>2023-11-08T15:51:55Z</time>
      </trkpt>
      <trkpt lat="43.47941" lon="6.32758">
        <ele>141.4</ele>
        <time>2023-11-08T15:52:05Z</time>
      </trkpt>
      <trkpt lat="43.47955" lon="6.32756">
        <ele>140.9</ele>
        <time>2023-11-08T15:52:15Z</time>
      </trkpt>
      <trkpt lat="43.47969" lon="6.32753">
        <ele>140.2</ele>
        <time>2023-11-08T15:52:25Z</time>
      </trkpt>
      <trkpt lat="43.47981" lon="6.32751">
        <ele>140.4</ele>
        <time>2023-11-08T15:52:35Z</time>
      </trkpt>
      <trkpt lat="43.47993" lon="6.32748">
        <ele>140.6</ele>
        <time>2023-11-08T15:52:45Z</time>
      </trkpt>
      <trkpt lat="43.48008" lon="6.32745">
        <ele>140.6</ele>
        <time>2023-11-08T15:52:55Z</time>
      </trkpt>
      <trkpt lat="43.48021" lon="6.32743">
        <ele>141.2</ele>
        <time>2023-11-08T15:53:05Z</time>
      </trkpt>
      <trkpt lat="43.48033" lon="6.32742">
        <ele>140.9</ele>
        <time>2023-11-08T15:53:15Z</time>
      </trkpt>
      <trkpt lat="43.48044" lon="6.32744">
        <ele>141.5</ele>
        <time>2023-11-08T15:53:25Z</time>
      </trkpt>
      <trkpt lat="43.48055" lon="6.32749">
        <ele>143.3</ele>
        <time>2023-11-08T15:53:35Z</time>
      </trkpt>
      <trkpt lat="43.48064" lon="6.32754">
        <ele>143.1</ele>
        <time>2023-11-08T15:53:45Z</time>
      </trkpt>
      <trkpt lat="43.48071" lon="6.32761">
        <ele>144.1</ele>
        <time>2023-11-08T15:53:55Z</time>
      </trkpt>
      <trkpt lat="43.48079" lon="6.32768">
        <ele>144.7</ele>
        <time>2023-11-08T15:54:05Z</time>
      </trkpt>
      <trkpt lat="43.48089" lon="6.32776">
        <ele>146</ele>
        <time>2023-11-08T15:54:15Z</time>
      </trkpt>
      <trkpt lat="43.48101" lon="6.32788">
        <ele>147.3</ele>
        <time>2023-11-08T15:54:25Z</time>
      </trkpt>
      <trkpt lat="43.48109" lon="6.32802">
        <ele>148.4</ele>
        <time>2023-11-08T15:54:35Z</time>
      </trkpt>
      <trkpt lat="43.48117" lon="6.32814">
        <ele>148.9</ele>
        <time>2023-11-08T15:54:45Z</time>
      </trkpt>
      <trkpt lat="43.48124" lon="6.32825">
        <ele>148.7</ele>
        <time>2023-11-08T15:54:55Z</time>
      </trkpt>
      <trkpt lat="43.48132" lon="6.32834">
        <ele>150.1</ele>
        <time>2023-11-08T15:55:05Z</time>
      </trkpt>
      <trkpt lat="43.48133" lon="6.32832">
        <ele>150</ele>
        <time>2023-11-08T15:55:15Z</time>
      </trkpt>
      <trkpt lat="43.48134" lon="6.32831">
        <ele>150</ele>
        <time>2023-11-08T15:55:25Z</time>
      </trkpt>
      <trkpt lat="43.48134" lon="6.3283">
        <ele>149.8</ele>
        <time>2023-11-08T15:55:35Z</time>
      </trkpt>
      <trkpt lat="43.48133" lon="6.3283">
        <ele>149.9</ele>
        <time>2023-11-08T15:55:45Z</time>
      </trkpt>
      <trkpt lat="43.48134" lon="6.32828">
        <ele>150</ele>
        <time>2023-11-08T15:55:55Z</time>
      </trkpt>
      <trkpt lat="43.48135" lon="6.32827">
        <ele>149.9</ele>
        <time>2023-11-08T15:56:05Z</time>
      </trkpt>
      <trkpt lat="43.48135" lon="6.32827">
        <ele>149.9</ele>
        <time>2023-11-08T15:56:15Z</time>
      </trkpt>
      <trkpt lat="43.48135" lon="6.32827">
        <ele>150</ele>
        <time>2023-11-08T15:56:25Z</time>
      </trkpt>
      <trkpt lat="43.48136" lon="6.32827">
        <ele>150.1</ele>
        <time>2023-11-08T15:56:35Z</time>
      </trkpt>
      <trkpt lat="43.48137" lon="6.32828">
        <ele>150.2</ele>
        <time>2023-11-08T15:56:45Z</time>
      </trkpt>
      <trkpt lat="43.48137" lon="6.32828">
        <ele>150.2</ele>
        <time>2023-11-08T15:56:55Z</time>
      </trkpt>
      <trkpt lat="43.48138" lon="6.32828">
        <ele>150.1</ele>
        <time>2023-11-08T15:57:05Z</time>
      </trkpt>
      <trkpt lat="43.48138" lon="6.32828">
        <ele>150.1</ele>
        <time>2023-11-08T15:57:15Z</time>
      </trkpt>
      <trkpt lat="43.48138" lon="6.32829">
        <ele>149.9</ele>
        <time>2023-11-08T15:57:25Z</time>
      </trkpt>
      <trkpt lat="43.48139" lon="6.32828">
        <ele>149.9</ele>
        <time>2023-11-08T15:57:35Z</time>
      </trkpt>
      <trkpt lat="43.48137" lon="6.32829">
        <ele>150.5</ele>
        <time>2023-11-08T15:57:45Z</time>
      </trkpt>
      <trkpt lat="43.48136" lon="6.32829">
        <ele>150.3</ele>
        <time>2023-11-08T15:57:55Z</time>
      </trkpt>
      <trkpt lat="43.48137" lon="6.32829">
        <ele>150.3</ele>
        <time>2023-11-08T15:57:57Z</time>
      </trkpt>
    </trkseg>
  </trk>
</gpx>